Wetterdaten: Sonntag, 28.11.2021
Datum Zeit Temp. Aussen Temp. o. S. Temp +5cm Feuchte Auss Luftdruck Regen Sonnenschein Regendauer Solar Windben Empfang
28.11.2021 00:00 2,9 C 2,2 C 0,0 C 88 % 994,6 hPa 0,0 l/m 0 min 0 min 0 W/m 6,4 km/h (2 Bft) 100,00 %
28.11.2021 00:02 2,9 C 2,2 C 0,6 C 88 % 994,6 hPa 0,0 l/m 0 min 0 min 0 W/m 3,2 km/h (1 Bft) 100,00 %
28.11.2021 00:04 2,9 C 2,2 C 0,6 C 88 % 994,6 hPa 0,0 l/m 0 min 0 min 0 W/m 6,4 km/h (2 Bft) 100,00 %
28.11.2021 00:08 2,9 C 2,2 C 0,0 C 88 % 994,6 hPa 0,0 l/m 0 min 0 min 0 W/m 6,4 km/h (2 Bft) 100,00 %
28.11.2021 00:10 2,9 C 2,2 C 0,0 C 88 % 994,6 hPa 0,0 l/m 0 min 0 min 0 W/m 3,2 km/h (1 Bft) 100,00 %
28.11.2021 00:12 2,9 C 2,2 C 0,0 C 88 % 994,6 hPa 0,0 l/m 0 min 0 min 0 W/m 6,4 km/h (2 Bft) 100,00 %
28.11.2021 00:14 2,9 C 2,2 C 0,0 C 88 % 994,6 hPa 0,0 l/m 0 min 0 min 0 W/m 6,4 km/h (2 Bft) 100,00 %
28.11.2021 00:16 2,9 C 2,2 C 0,0 C 88 % 994,6 hPa 0,0 l/m 0 min 0 min 0 W/m 3,2 km/h (1 Bft) 100,00 %
28.11.2021 00:18 2,9 C 2,2 C 0,0 C 88 % 994,6 hPa 0,0 l/m 0 min 0 min 0 W/m 3,2 km/h (1 Bft) 97,87 %
28.11.2021 00:20 2,9 C 2,2 C 0,0 C 88 % 994,6 hPa 0,0 l/m 0 min 0 min 0 W/m 3,2 km/h (1 Bft) 100,00 %
28.11.2021 00:22 2,9 C 2,2 C 0,0 C 88 % 994,6 hPa 0,0 l/m 0 min 0 min 0 W/m 6,4 km/h (2 Bft) 100,00 %
28.11.2021 00:24 2,9 C 2,2 C 0,0 C 88 % 994,7 hPa 0,0 l/m 0 min 0 min 0 W/m 12,9 km/h (3 Bft) 100,00 %
28.11.2021 00:26 2,9 C 2,2 C 0,0 C 88 % 994,7 hPa 0,0 l/m 0 min 0 min 0 W/m 6,4 km/h (2 Bft) 97,87 %
28.11.2021 00:28 2,9 C 2,2 C 0,0 C 88 % 994,6 hPa 0,0 l/m 0 min 0 min 0 W/m 6,4 km/h (2 Bft) 100,00 %
28.11.2021 00:30 2,9 C 2,2 C 0,0 C 88 % 994,6 hPa 0,0 l/m 0 min 0 min 0 W/m 6,4 km/h (2 Bft) 100,00 %
28.11.2021 00:32 2,9 C 2,2 C 0,0 C 88 % 994,6 hPa 0,0 l/m 0 min 0 min 0 W/m 6,4 km/h (2 Bft) 100,00 %
28.11.2021 00:34 2,9 C 2,2 C 0,0 C 88 % 994,6 hPa 0,0 l/m 0 min 0 min 0 W/m 3,2 km/h (1 Bft) 100,00 %
28.11.2021 00:36 2,9 C 2,2 C 0,0 C 88 % 994,6 hPa 0,0 l/m 0 min 0 min 0 W/m 3,2 km/h (1 Bft) 100,00 %
28.11.2021 00:38 2,9 C 2,2 C 0,0 C 88 % 994,6 hPa 0,0 l/m 0 min 0 min 0 W/m 6,4 km/h (2 Bft) 100,00 %
28.11.2021 00:40 2,9 C 2,2 C 0,0 C 88 % 994,6 hPa 0,0 l/m 0 min 0 min 0 W/m 6,4 km/h (2 Bft) 100,00 %
28.11.2021 00:42 2,9 C 2,2 C 0,0 C 88 % 994,6 hPa 0,0 l/m 0 min 0 min 0 W/m 6,4 km/h (2 Bft) 100,00 %
28.11.2021 00:44 2,9 C 2,2 C 0,0 C 88 % 994,6 hPa 0,0 l/m 0 min 0 min 0 W/m 3,2 km/h (1 Bft) 100,00 %
28.11.2021 00:46 2,9 C 2,2 C 0,0 C 88 % 994,6 hPa 0,0 l/m 0 min 0 min 0 W/m 6,4 km/h (2 Bft) 97,83 %
28.11.2021 00:48 2,9 C 2,2 C 0,0 C 88 % 994,6 hPa 0,0 l/m 0 min 0 min 0 W/m 3,2 km/h (1 Bft) 100,00 %
28.11.2021 00:50 2,9 C 2,2 C 0,0 C 88 % 994,6 hPa 0,0 l/m 0 min 0 min 0 W/m 3,2 km/h (1 Bft) 100,00 %
28.11.2021 00:52 2,9 C 2,2 C 0,0 C 88 % 994,6 hPa 0,0 l/m 0 min 0 min 0 W/m 3,2 km/h (1 Bft) 97,87 %
28.11.2021 00:54 2,9 C 2,2 C 0,0 C 88 % 994,6 hPa 0,0 l/m 0 min 0 min 0 W/m 3,2 km/h (1 Bft) 95,74 %
28.11.2021 00:56 2,9 C 2,2 C 0,0 C 88 % 994,5 hPa 0,0 l/m 0 min 0 min 0 W/m 3,2 km/h (1 Bft) 97,83 %
28.11.2021 00:58 2,9 C 2,2 C 0,0 C 88 % 994,6 hPa 0,0 l/m 0 min 0 min 0 W/m 3,2 km/h (1 Bft) 95,74 %
28.11.2021 01:00 2,9 C 2,2 C 0,0 C 89 % 994,6 hPa 0,0 l/m 0 min 0 min 0 W/m 6,4 km/h (2 Bft) 97,87 %
28.11.2021 01:02 2,9 C 2,2 C 0,0 C 88 % 994,6 hPa 0,0 l/m 0 min 0 min 0 W/m 3,2 km/h (1 Bft) 95,74 %
28.11.2021 01:04 2,9 C 2,2 C 0,0 C 88 % 994,6 hPa 0,0 l/m 0 min 0 min 0 W/m 6,4 km/h (2 Bft) 97,87 %
28.11.2021 01:06 2,9 C 2,2 C 0,0 C 88 % 994,6 hPa 0,0 l/m 0 min 0 min 0 W/m 6,4 km/h (2 Bft) 95,74 %
28.11.2021 01:08 2,9 C 2,2 C 0,0 C 88 % 994,6 hPa 0,0 l/m 0 min 0 min 0 W/m 3,2 km/h (1 Bft) 48,78 %
28.11.2021 01:10 2,9 C 2,2 C 0,0 C 89 % 994,6 hPa 0,0 l/m 0 min 0 min 0 W/m 6,4 km/h (2 Bft) 93,62 %
28.11.2021 01:12 2,8 C 2,2 C 0,0 C 89 % 994,6 hPa 0,0 l/m 0 min 0 min 0 W/m 6,4 km/h (2 Bft) 95,74 %
28.11.2021 01:14 2,8 C 2,2 C 0,0 C 89 % 994,6 hPa 0,0 l/m 0 min 0 min 0 W/m 3,2 km/h (1 Bft) 95,74 %
28.11.2021 01:16 2,8 C 2,2 C 0,0 C 89 % 994,6 hPa 0,0 l/m 0 min 0 min 0 W/m 6,4 km/h (2 Bft) 95,74 %
28.11.2021 01:18 2,8 C 2,2 C 0,0 C 89 % 994,6 hPa 0,0 l/m 0 min 0 min 0 W/m 6,4 km/h (2 Bft) 95,74 %
28.11.2021 01:20 2,8 C 2,2 C 0,0 C 89 % 994,7 hPa 0,0 l/m 0 min 0 min 0 W/m 6,4 km/h (2 Bft) 95,65 %
28.11.2021 01:22 2,8 C 2,2 C 0,0 C 89 % 994,7 hPa 0,0 l/m 0 min 0 min 0 W/m 12,9 km/h (3 Bft) 95,74 %
28.11.2021 01:24 2,8 C 2,2 C 0,0 C 89 % 994,6 hPa 0,0 l/m 0 min 0 min 0 W/m 12,9 km/h (3 Bft) 95,74 %
28.11.2021 01:26 2,8 C 2,2 C 0,0 C 89 % 994,6 hPa 0,0 l/m 0 min 0 min 0 W/m 6,4 km/h (2 Bft) 93,62 %
28.11.2021 01:28 2,8 C 2,2 C 0,0 C 89 % 994,6 hPa 0,0 l/m 0 min 0 min 0 W/m 12,9 km/h (3 Bft) 93,62 %
28.11.2021 01:30 2,8 C 2,2 C 0,0 C 89 % 994,7 hPa 0,0 l/m 0 min 0 min 0 W/m 12,9 km/h (3 Bft) 91,49 %
28.11.2021 01:32 2,8 C 2,2 C 0,0 C 89 % 994,7 hPa 0,0 l/m 0 min 0 min 0 W/m 3,2 km/h (1 Bft) 91,30 %
28.11.2021 01:34 2,7 C 2,2 C 0,0 C 89 % 994,7 hPa 0,0 l/m 0 min 0 min 0 W/m 6,4 km/h (2 Bft) 96,00 %
28.11.2021 01:36 2,7 C 2,2 C 0,0 C 89 % 994,7 hPa 0,0 l/m 0 min 0 min 0 W/m 6,4 km/h (2 Bft) 93,62 %
28.11.2021 01:38 2,7 C 2,2 C 0,0 C 89 % 994,7 hPa 0,0 l/m 0 min 0 min 0 W/m 6,4 km/h (2 Bft) 93,62 %
28.11.2021 01:40 2,7 C 2,2 C 0,0 C 89 % 994,7 hPa 0,0 l/m 0 min 0 min 0 W/m 6,4 km/h (2 Bft) 95,74 %
28.11.2021 01:42 2,7 C 2,2 C 0,0 C 89 % 994,8 hPa 0,0 l/m 0 min 0 min 0 W/m 3,2 km/h (1 Bft) 95,74 %
28.11.2021 01:44 2,7 C 2,2 C 0,0 C 89 % 994,8 hPa 0,0 l/m 0 min 0 min 0 W/m 6,4 km/h (2 Bft) 95,65 %
28.11.2021 01:46 2,6 C 2,2 C 0,0 C 89 % 994,8 hPa 0,0 l/m 0 min 0 min 0 W/m 6,4 km/h (2 Bft) 95,74 %
28.11.2021 01:48 2,6 C 2,2 C 0,0 C 89 % 994,8 hPa 0,0 l/m 0 min 0 min 0 W/m 6,4 km/h (2 Bft) 97,87 %
28.11.2021 01:50 2,6 C 2,2 C 0,0 C 89 % 994,8 hPa 0,0 l/m 0 min 0 min 0 W/m 3,2 km/h (1 Bft) 97,87 %
28.11.2021 01:52 2,6 C 2,2 C 0,0 C 89 % 994,8 hPa 0,0 l/m 0 min 0 min 0 W/m 6,4 km/h (2 Bft) 97,87 %
28.11.2021 01:54 2,6 C 2,2 C 0,0 C 89 % 994,8 hPa 0,0 l/m 0 min 0 min 0 W/m 3,2 km/h (1 Bft) 95,65 %
28.11.2021 01:56 2,6 C 2,2 C 0,0 C 89 % 994,8 hPa 0,0 l/m 0 min 0 min 0 W/m 6,4 km/h (2 Bft) 93,62 %
28.11.2021 01:58 2,6 C 2,2 C 0,0 C 89 % 994,8 hPa 0,0 l/m 0 min 0 min 0 W/m 6,4 km/h (2 Bft) 95,74 %
28.11.2021 02:00 2,6 C 2,2 C 0,0 C 90 % 994,9 hPa 0,0 l/m 0 min 0 min 0 W/m 3,2 km/h (1 Bft) 95,74 %
28.11.2021 02:02 2,6 C 2,2 C 0,0 C 90 % 994,8 hPa 0,0 l/m 0 min 0 min 0 W/m 6,4 km/h (2 Bft) 95,74 %
28.11.2021 02:04 2,5 C 1,7 C 0,0 C 90 % 994,9 hPa 0,0 l/m 0 min 0 min 0 W/m 6,4 km/h (2 Bft) 97,87 %
28.11.2021 02:06 2,5 C 1,7 C 0,0 C 90 % 994,9 hPa 0,0 l/m 0 min 0 min 0 W/m 3,2 km/h (1 Bft) 95,65 %
28.11.2021 02:08 2,5 C 1,7 C 0,0 C 90 % 994,9 hPa 0,0 l/m 0 min 0 min 0 W/m 6,4 km/h (2 Bft) 100,00 %
28.11.2021 02:10 2,5 C 1,7 C 0,0 C 90 % 994,9 hPa 0,0 l/m 0 min 0 min 0 W/m 6,4 km/h (2 Bft) 100,00 %
28.11.2021 02:12 2,5 C 1,7 C 0,0 C 90 % 994,9 hPa 0,0 l/m 0 min 0 min 0 W/m 6,4 km/h (2 Bft) 100,00 %
28.11.2021 02:14 2,5 C 1,7 C 0,0 C 90 % 994,9 hPa 0,0 l/m 0 min 0 min 0 W/m 3,2 km/h (1 Bft) 100,00 %
28.11.2021 02:16 2,5 C 1,7 C 0,0 C 90 % 994,9 hPa 0,0 l/m 0 min 0 min 0 W/m 3,2 km/h (1 Bft) 100,00 %
28.11.2021 02:18 2,5 C 1,7 C 0,0 C 90 % 994,9 hPa 0,0 l/m 0 min 0 min 0 W/m 3,2 km/h (1 Bft) 100,00 %
28.11.2021 02:20 2,5 C 1,7 C 0,0 C 90 % 995,0 hPa 0,0 l/m 0 min 0 min 0 W/m 3,2 km/h (1 Bft) 100,00 %
28.11.2021 02:22 2,4 C 1,7 C 0,0 C 90 % 995,0 hPa 0,0 l/m 0 min 0 min 0 W/m 3,2 km/h (1 Bft) 100,00 %
28.11.2021 02:24 2,4 C 1,7 C 0,0 C 90 % 995,0 hPa 0,0 l/m 0 min 0 min 0 W/m 6,4 km/h (2 Bft) 100,00 %
28.11.2021 02:26 2,4 C 1,7 C -0,6 C 90 % 995,0 hPa 0,0 l/m 0 min 0 min 0 W/m 6,4 km/h (2 Bft) 100,00 %
28.11.2021 02:28 2,4 C 1,7 C -0,6 C 90 % 995,0 hPa 0,0 l/m 0 min 0 min 0 W/m 6,4 km/h (2 Bft) 100,00 %
28.11.2021 02:30 2,4 C 1,7 C -0,6 C 90 % 995,0 hPa 0,0 l/m 0 min 0 min 0 W/m 6,4 km/h (2 Bft) 95,65 %
28.11.2021 02:32 2,3 C 1,7 C -0,6 C 90 % 995,0 hPa 0,0 l/m 0 min 0 min 0 W/m 6,4 km/h (2 Bft) 100,00 %
28.11.2021 02:34 2,3 C 1,1 C -0,6 C 90 % 995,0 hPa 0,0 l/m 0 min 0 min 0 W/m 6,4 km/h (2 Bft) 100,00 %
28.11.2021 02:36 2,3 C 1,1 C -0,6 C 90 % 995,0 hPa 0,0 l/m 0 min 0 min 0 W/m 6,4 km/h (2 Bft) 100,00 %
28.11.2021 02:38 2,3 C 1,1 C -0,6 C 90 % 995,1 hPa 0,0 l/m 0 min 0 min 0 W/m 3,2 km/h (1 Bft) 100,00 %
28.11.2021 02:40 2,2 C 1,1 C -0,6 C 90 % 995,1 hPa 0,0 l/m 0 min 0 min 0 W/m 3,2 km/h (1 Bft) 100,00 %
28.11.2021 02:42 2,2 C 1,1 C -0,6 C 90 % 995,2 hPa 0,0 l/m 0 min 0 min 0 W/m 3,2 km/h (1 Bft) 100,00 %
28.11.2021 02:44 2,2 C 1,1 C -0,6 C 90 % 995,1 hPa 0,0 l/m 0 min 0 min 0 W/m 3,2 km/h (1 Bft) 100,00 %
28.11.2021 02:46 2,1 C 1,1 C -0,6 C 90 % 995,1 hPa 0,0 l/m 0 min 0 min 0 W/m 6,4 km/h (2 Bft) 97,87 %
28.11.2021 02:48 2,1 C 1,1 C -0,6 C 90 % 995,1 hPa 0,0 l/m 0 min 0 min 0 W/m 6,4 km/h (2 Bft) 100,00 %
28.11.2021 02:50 2,1 C 1,1 C -0,6 C 90 % 995,1 hPa 0,0 l/m 0 min 0 min 0 W/m 3,2 km/h (1 Bft) 97,87 %
28.11.2021 02:52 2,0 C 1,1 C -0,6 C 90 % 995,1 hPa 0,0 l/m 0 min 0 min 0 W/m 3,2 km/h (1 Bft) 100,00 %
28.11.2021 02:54 2,0 C 1,1 C -1,1 C 90 % 995,1 hPa 0,0 l/m 0 min 0 min 0 W/m 6,4 km/h (2 Bft) 97,83 %
28.11.2021 02:56 2,0 C 1,1 C -1,1 C 90 % 995,1 hPa 0,0 l/m 0 min 0 min 0 W/m 0,0 km/h (0 Bft) 100,00 %
28.11.2021 02:58 2,0 C 0,6 C -1,1 C 90 % 995,1 hPa 0,0 l/m 0 min 0 min 0 W/m 0,0 km/h (0 Bft) 97,87 %
28.11.2021 03:00 1,9 C 0,6 C -1,1 C 90 % 995,1 hPa 0,0 l/m 0 min 0 min 0 W/m 3,2 km/h (1 Bft) 97,87 %
28.11.2021 03:02 1,9 C 0,6 C -1,1 C 90 % 995,1 hPa 0,0 l/m 0 min 0 min 0 W/m 0,0 km/h (0 Bft) 95,74 %
28.11.2021 03:04 1,9 C 0,6 C -1,1 C 90 % 995,1 hPa 0,0 l/m 0 min 0 min 0 W/m 3,2 km/h (1 Bft) 97,83 %
28.11.2021 03:06 1,9 C 0,6 C -1,1 C 90 % 995,1 hPa 0,0 l/m 0 min 0 min 0 W/m 3,2 km/h (1 Bft) 97,87 %
28.11.2021 03:08 1,8 C 0,6 C -1,1 C 90 % 995,0 hPa 0,0 l/m 0 min 0 min 0 W/m 3,2 km/h (1 Bft) 97,87 %
28.11.2021 03:10 1,8 C 0,6 C -1,1 C 90 % 995,1 hPa 0,0 l/m 0 min 0 min 0 W/m 0,0 km/h (0 Bft) 95,74 %
28.11.2021 03:12 1,8 C 0,6 C -1,1 C 90 % 995,1 hPa 0,0 l/m 0 min 0 min 0 W/m 0,0 km/h (0 Bft) 97,87 %
28.11.2021 03:14 1,8 C 0,6 C -1,1 C 90 % 995,1 hPa 0,0 l/m 0 min 0 min 0 W/m 0,0 km/h (0 Bft) 95,74 %
28.11.2021 03:16 1,7 C 0,6 C -1,7 C 90 % 995,2 hPa 0,0 l/m 0 min 0 min 0 W/m 0,0 km/h (0 Bft) 95,65 %
28.11.2021 03:18 1,7 C 0,0 C -1,7 C 90 % 995,1 hPa 0,0 l/m 0 min 0 min 0 W/m 0,0 km/h (0 Bft) 97,87 %
28.11.2021 03:20 1,6 C 0,0 C -1,7 C 90 % 995,1 hPa 0,0 l/m 0 min 0 min 0 W/m 0,0 km/h (0 Bft) 97,87 %
28.11.2021 03:22 1,6 C 0,0 C -1,7 C 90 % 995,2 hPa 0,0 l/m 0 min 0 min 0 W/m 0,0 km/h (0 Bft) 97,87 %
28.11.2021 03:24 1,6 C 0,0 C -1,7 C 90 % 995,1 hPa 0,0 l/m 0 min 0 min 0 W/m 0,0 km/h (0 Bft) 97,87 %
28.11.2021 03:26 1,5 C 0,0 C -1,7 C 90 % 995,1 hPa 0,0 l/m 0 min 0 min 0 W/m 0,0 km/h (0 Bft) 100,00 %
28.11.2021 03:28 1,5 C 0,0 C -1,7 C 90 % 995,1 hPa 0,0 l/m 0 min 0 min 0 W/m 0,0 km/h (0 Bft) 97,83 %
28.11.2021 03:30 1,5 C -0,6 C -2,2 C 90 % 995,1 hPa 0,0 l/m 0 min 0 min 0 W/m 0,0 km/h (0 Bft) 95,74 %
28.11.2021 03:32 1,4 C -0,6 C -2,2 C 90 % 995,1 hPa 0,0 l/m 0 min 0 min 0 W/m 0,0 km/h (0 Bft) 100,00 %
28.11.2021 03:34 1,4 C -0,6 C -2,2 C 90 % 995,1 hPa 0,0 l/m 0 min 0 min 0 W/m 0,0 km/h (0 Bft) 100,00 %
28.11.2021 03:36 1,4 C -0,6 C -2,2 C 90 % 995,2 hPa 0,0 l/m 0 min 0 min 0 W/m 0,0 km/h (0 Bft) 97,87 %
28.11.2021 03:38 1,3 C -0,6 C -2,2 C 90 % 995,2 hPa 0,0 l/m 0 min 0 min 0 W/m 0,0 km/h (0 Bft) 97,87 %
28.11.2021 03:40 1,3 C -0,6 C -2,2 C 90 % 995,1 hPa 0,0 l/m 0 min 0 min 0 W/m 0,0 km/h (0 Bft) 100,00 %
28.11.2021 03:42 1,2 C -1,1 C -2,2 C 90 % 995,1 hPa 0,0 l/m 0 min 0 min 0 W/m 0,0 km/h (0 Bft) 97,87 %
28.11.2021 03:44 1,1 C -1,1 C -2,2 C 90 % 995,2 hPa 0,0 l/m 0 min 0 min 0 W/m 0,0 km/h (0 Bft) 97,87 %
28.11.2021 03:46 1,1 C -1,1 C -2,2 C 90 % 995,2 hPa 0,0 l/m 0 min 0 min 0 W/m 0,0 km/h (0 Bft) 95,74 %
28.11.2021 03:48 1,0 C -1,1 C -2,8 C 90 % 995,1 hPa 0,0 l/m 0 min 0 min 0 W/m 0,0 km/h (0 Bft) 97,87 %
28.11.2021 03:50 1,0 C -1,1 C -2,8 C 90 % 995,2 hPa 0,0 l/m 0 min 0 min 0 W/m 0,0 km/h (0 Bft) 97,87 %
28.11.2021 03:52 0,9 C -1,1 C -2,8 C 90 % 995,2 hPa 0,0 l/m 0 min 0 min 0 W/m 0,0 km/h (0 Bft) 97,83 %
28.11.2021 03:54 0,9 C -1,1 C -2,8 C 90 % 995,2 hPa 0,0 l/m 0 min 0 min 0 W/m 0,0 km/h (0 Bft) 97,87 %
28.11.2021 03:56 0,8 C -1,1 C -2,8 C 90 % 995,1 hPa 0,0 l/m 0 min 0 min 0 W/m 0,0 km/h (0 Bft) 97,87 %
28.11.2021 03:58 0,8 C -1,1 C -2,8 C 90 % 995,1 hPa 0,0 l/m 0 min 0 min 0 W/m 0,0 km/h (0 Bft) 97,87 %
28.11.2021 04:00 0,6 C -1,1 C -2,8 C 90 % 995,1 hPa 0,0 l/m 0 min 0 min 0 W/m 0,0 km/h (0 Bft) 95,74 %
28.11.2021 04:02 0,6 C -1,1 C -2,8 C 90 % 995,1 hPa 0,0 l/m 0 min 0 min 0 W/m 0,0 km/h (0 Bft) 100,00 %
28.11.2021 04:04 0,5 C -1,1 C -2,8 C 90 % 995,1 hPa 0,0 l/m 0 min 0 min 0 W/m 0,0 km/h (0 Bft) 95,65 %
28.11.2021 04:06 0,5 C -1,1 C -2,8 C 90 % 995,1 hPa 0,0 l/m 0 min 0 min 0 W/m 0,0 km/h (0 Bft) 100,00 %
28.11.2021 04:08 0,5 C -1,7 C -2,8 C 90 % 995,1 hPa 0,0 l/m 0 min 0 min 0 W/m 0,0 km/h (0 Bft) 100,00 %
28.11.2021 04:10 0,5 C -1,7 C -2,8 C 89 % 995,1 hPa 0,0 l/m 0 min 0 min 0 W/m 0,0 km/h (0 Bft) 100,00 %
28.11.2021 04:12 0,4 C -1,7 C -2,8 C 89 % 995,2 hPa 0,0 l/m 0 min 0 min 0 W/m 0,0 km/h (0 Bft) 97,87 %
28.11.2021 04:14 0,4 C -1,7 C -2,8 C 89 % 995,1 hPa 0,0 l/m 0 min 0 min 0 W/m 0,0 km/h (0 Bft) 100,00 %
28.11.2021 04:16 0,4 C -1,7 C -2,8 C 90 % 995,2 hPa 0,0 l/m 0 min 0 min 0 W/m 0,0 km/h (0 Bft) 97,83 %
28.11.2021 04:18 0,3 C -1,7 C -2,8 C 90 % 995,2 hPa 0,0 l/m 0 min 0 min 0 W/m 0,0 km/h (0 Bft) 97,87 %
28.11.2021 04:20 0,3 C -1,7 C -2,8 C 90 % 995,2 hPa 0,0 l/m 0 min 0 min 0 W/m 0,0 km/h (0 Bft) 95,74 %
28.11.2021 04:22 0,2 C -1,7 C -2,8 C 90 % 995,2 hPa 0,0 l/m 0 min 0 min 0 W/m 0,0 km/h (0 Bft) 95,74 %
28.11.2021 04:24 0,1 C -1,7 C -2,8 C 89 % 995,2 hPa 0,0 l/m 0 min 0 min 0 W/m 0,0 km/h (0 Bft) 93,62 %
28.11.2021 04:26 0,1 C -1,7 C -2,8 C 89 % 995,2 hPa 0,0 l/m 0 min 0 min 0 W/m 0,0 km/h (0 Bft) 97,87 %
28.11.2021 04:28 0,0 C -1,7 C -3,3 C 90 % 995,2 hPa 0,0 l/m 0 min 0 min 0 W/m 0,0 km/h (0 Bft) 97,83 %
28.11.2021 04:30 0,0 C -1,7 C -3,3 C 90 % 995,3 hPa 0,0 l/m 0 min 0 min 0 W/m 0,0 km/h (0 Bft) 97,87 %
28.11.2021 04:32 0,0 C -1,7 C -3,3 C 90 % 995,2 hPa 0,0 l/m 0 min 0 min 0 W/m 0,0 km/h (0 Bft) 97,87 %
28.11.2021 04:34 -0,1 C -1,7 C -3,3 C 90 % 995,3 hPa 0,0 l/m 0 min 0 min 0 W/m 0,0 km/h (0 Bft) 95,74 %
28.11.2021 04:36 -0,1 C -1,7 C -3,3 C 90 % 995,3 hPa 0,0 l/m 0 min 0 min 0 W/m 0,0 km/h (0 Bft) 93,62 %
28.11.2021 04:38 -0,1 C -1,7 C -3,3 C 89 % 995,3 hPa 0,0 l/m 0 min 0 min 0 W/m 0,0 km/h (0 Bft) 95,65 %
28.11.2021 04:40 -0,2 C -1,7 C -3,3 C 89 % 995,4 hPa 0,0 l/m 0 min 0 min 0 W/m 0,0 km/h (0 Bft) 95,74 %
28.11.2021 04:42 -0,2 C -1,7 C -3,3 C 89 % 995,4 hPa 0,0 l/m 0 min 0 min 0 W/m 0,0 km/h (0 Bft) 93,62 %
28.11.2021 04:44 -0,2 C -1,7 C -3,3 C 89 % 995,4 hPa 0,0 l/m 0 min 0 min 0 W/m 0,0 km/h (0 Bft) 95,74 %
28.11.2021 04:46 -0,3 C -1,7 C -3,3 C 90 % 995,4 hPa 0,0 l/m 0 min 0 min 0 W/m 0,0 km/h (0 Bft) 91,49 %
28.11.2021 04:48 -0,4 C -1,7 C -3,3 C 89 % 995,5 hPa 0,0 l/m 0 min 0 min 0 W/m 0,0 km/h (0 Bft) 95,74 %
28.11.2021 04:50 -0,4 C -1,7 C -3,3 C 89 % 995,4 hPa 0,0 l/m 0 min 0 min 0 W/m 0,0 km/h (0 Bft) 93,48 %
28.11.2021 04:52 -0,5 C -1,7 C -3,3 C 89 % 995,5 hPa 0,0 l/m 0 min 0 min 0 W/m 0,0 km/h (0 Bft) 95,74 %
28.11.2021 04:54 -0,5 C -1,7 C -3,3 C 90 % 995,5 hPa 0,0 l/m 0 min 0 min 0 W/m 0,0 km/h (0 Bft) 95,74 %
28.11.2021 04:56 -0,5 C -1,7 C -3,3 C 90 % 995,5 hPa 0,0 l/m 0 min 0 min 0 W/m 0,0 km/h (0 Bft) 95,74 %
28.11.2021 04:58 -0,5 C -1,7 C -3,3 C 89 % 995,5 hPa 0,0 l/m 0 min 0 min 0 W/m 0,0 km/h (0 Bft) 97,87 %
28.11.2021 05:00 -0,6 C -2,2 C -3,3 C 89 % 995,5 hPa 0,0 l/m 0 min 0 min 0 W/m 0,0 km/h (0 Bft) 97,87 %
28.11.2021 05:02 -0,6 C -2,2 C -3,3 C 89 % 995,5 hPa 0,0 l/m 0 min 0 min 0 W/m 0,0 km/h (0 Bft) 97,83 %
28.11.2021 05:04 -0,7 C -1,7 C -3,3 C 89 % 995,5 hPa 0,0 l/m 0 min 0 min 0 W/m 0,0 km/h (0 Bft) 97,87 %
28.11.2021 05:06 -0,7 C -1,7 C -3,3 C 89 % 995,6 hPa 0,0 l/m 0 min 0 min 0 W/m 0,0 km/h (0 Bft) 97,87 %
28.11.2021 05:08 -0,8 C -2,2 C -3,3 C 89 % 995,5 hPa 0,0 l/m 0 min 0 min 0 W/m 0,0 km/h (0 Bft) 97,87 %
28.11.2021 05:10 -0,8 C -2,2 C -3,3 C 89 % 995,6 hPa 0,0 l/m 0 min 0 min 0 W/m 0,0 km/h (0 Bft) 97,87 %
28.11.2021 05:12 -0,9 C -2,2 C -3,3 C 89 % 995,6 hPa 0,0 l/m 0 min 0 min 0 W/m 0,0 km/h (0 Bft) 95,74 %
28.11.2021 05:14 -0,9 C -2,2 C -3,3 C 89 % 995,6 hPa 0,0 l/m 0 min 0 min 0 W/m 0,0 km/h (0 Bft) 93,48 %
28.11.2021 05:16 -1,0 C -2,2 C -3,3 C 89 % 995,6 hPa 0,0 l/m 0 min 0 min 0 W/m 0,0 km/h (0 Bft) 97,87 %
28.11.2021 05:18 -1,0 C -2,2 C -3,3 C 89 % 995,6 hPa 0,0 l/m 0 min 0 min 0 W/m 0,0 km/h (0 Bft) 95,74 %
28.11.2021 05:20 -1,0 C -2,2 C -3,3 C 89 % 995,7 hPa 0,0 l/m 0 min 0 min 0 W/m 0,0 km/h (0 Bft) 97,87 %
28.11.2021 05:22 -1,0 C -1,7 C -3,3 C 89 % 995,7 hPa 0,0 l/m 0 min 0 min 0 W/m 0,0 km/h (0 Bft) 95,74 %
28.11.2021 05:24 -1,0 C -1,7 C -3,3 C 89 % 995,7 hPa 0,0 l/m 0 min 0 min 0 W/m 0,0 km/h (0 Bft) 95,74 %
28.11.2021 05:26 -1,1 C -1,7 C -3,3 C 89 % 995,7 hPa 0,0 l/m 0 min 0 min 0 W/m 0,0 km/h (0 Bft) 95,65 %
28.11.2021 05:28 -1,1 C -1,7 C -3,3 C 89 % 995,7 hPa 0,0 l/m 0 min 0 min 0 W/m 0,0 km/h (0 Bft) 95,74 %
28.11.2021 05:30 -1,1 C -1,7 C -3,3 C 90 % 995,8 hPa 0,0 l/m 0 min 0 min 0 W/m 0,0 km/h (0 Bft) 95,74 %
28.11.2021 05:32 -1,1 C -1,7 C -3,3 C 90 % 995,8 hPa 0,0 l/m 0 min 0 min 0 W/m 0,0 km/h (0 Bft) 93,62 %
28.11.2021 05:34 -1,2 C -1,7 C -2,8 C 90 % 995,8 hPa 0,0 l/m 0 min 0 min 0 W/m 0,0 km/h (0 Bft) 95,74 %
28.11.2021 05:36 -1,2 C -1,7 C -2,8 C 89 % 995,8 hPa 0,0 l/m 0 min 0 min 0 W/m 0,0 km/h (0 Bft) 95,74 %
28.11.2021 05:38 -1,2 C -1,7 C -2,8 C 90 % 995,8 hPa 0,0 l/m 0 min 0 min 0 W/m 0,0 km/h (0 Bft) 95,65 %
28.11.2021 05:40 -1,2 C -1,1 C -2,8 C 90 % 995,8 hPa 0,0 l/m 0 min 0 min 0 W/m 0,0 km/h (0 Bft) 95,74 %
28.11.2021 05:42 -1,2 C -1,1 C -2,8 C 90 % 995,8 hPa 0,0 l/m 0 min 0 min 0 W/m 0,0 km/h (0 Bft) 95,74 %
28.11.2021 05:44 -1,2 C -1,1 C -2,8 C 90 % 995,9 hPa 0,0 l/m 0 min 0 min 0 W/m 0,0 km/h (0 Bft) 97,87 %
28.11.2021 05:46 -1,2 C -1,1 C -2,8 C 90 % 995,9 hPa 0,0 l/m 0 min 0 min 0 W/m 0,0 km/h (0 Bft) 97,87 %
28.11.2021 05:48 -1,2 C -1,1 C -2,2 C 90 % 996,0 hPa 0,0 l/m 0 min 0 min 0 W/m 0,0 km/h (0 Bft) 97,83 %
28.11.2021 05:50 -1,1 C -1,1 C -2,2 C 90 % 996,0 hPa 0,0 l/m 0 min 0 min 0 W/m 0,0 km/h (0 Bft) 95,74 %
28.11.2021 05:52 -1,1 C -0,6 C -2,2 C 90 % 995,9 hPa 0,0 l/m 0 min 0 min 0 W/m 0,0 km/h (0 Bft) 97,87 %
28.11.2021 05:54 -1,0 C -0,6 C -2,2 C 91 % 996,0 hPa 0,0 l/m 0 min 0 min 0 W/m 0,0 km/h (0 Bft) 97,87 %
28.11.2021 05:56 -1,0 C -0,6 C -2,2 C 91 % 996,0 hPa 0,0 l/m 0 min 0 min 0 W/m 0,0 km/h (0 Bft) 100,00 %
28.11.2021 05:58 -0,9 C -0,6 C -2,2 C 91 % 996,0 hPa 0,0 l/m 0 min 0 min 0 W/m 0,0 km/h (0 Bft) 95,74 %
28.11.2021 06:00 -0,9 C -0,6 C -2,2 C 91 % 996,0 hPa 0,0 l/m 0 min 0 min 0 W/m 0,0 km/h (0 Bft) 100,00 %
28.11.2021 06:02 -0,9 C -0,6 C -2,2 C 91 % 996,1 hPa 0,0 l/m 0 min 0 min 0 W/m 0,0 km/h (0 Bft) 97,83 %
28.11.2021 06:04 -0,9 C -0,6 C -1,7 C 91 % 996,1 hPa 0,0 l/m 0 min 0 min 0 W/m 0,0 km/h (0 Bft) 95,92 %
28.11.2021 06:08 -0,9 C -0,6 C -1,7 C 91 % 996,1 hPa 0,0 l/m 0 min 0 min 0 W/m 0,0 km/h (0 Bft) 98,94 %
28.11.2021 06:10 -0,7 C -0,6 C -1,7 C 91 % 996,1 hPa 0,0 l/m 0 min 0 min 0 W/m 3,2 km/h (1 Bft) 95,74 %
28.11.2021 06:12 -0,7 C 0,0 C -1,7 C 91 % 996,1 hPa 0,0 l/m 0 min 0 min 0 W/m 3,2 km/h (1 Bft) 97,83 %
28.11.2021 06:14 -0,6 C 0,0 C -1,7 C 92 % 996,1 hPa 0,0 l/m 0 min 0 min 0 W/m 3,2 km/h (1 Bft) 97,87 %
28.11.2021 06:16 -0,5 C 0,0 C -1,7 C 92 % 996,1 hPa 0,0 l/m 0 min 0 min 0 W/m 0,0 km/h (0 Bft) 97,87 %
28.11.2021 06:18 -0,5 C 0,0 C -1,7 C 92 % 996,1 hPa 0,0 l/m 0 min 0 min 0 W/m 3,2 km/h (1 Bft) 97,87 %
28.11.2021 06:20 -0,4 C 0,0 C -1,7 C 92 % 996,1 hPa 0,0 l/m 0 min 0 min 0 W/m 0,0 km/h (0 Bft) 97,87 %
28.11.2021 06:22 -0,4 C 0,0 C -1,7 C 92 % 996,1 hPa 0,0 l/m 0 min 0 min 0 W/m 0,0 km/h (0 Bft) 97,87 %
28.11.2021 06:24 -0,3 C 0,0 C -1,7 C 92 % 996,1 hPa 0,0 l/m 0 min 0 min 0 W/m 0,0 km/h (0 Bft) 97,83 %
28.11.2021 06:26 -0,2 C 0,0 C -1,7 C 92 % 996,2 hPa 0,0 l/m 0 min 0 min 0 W/m 0,0 km/h (0 Bft) 95,74 %
28.11.2021 06:28 -0,2 C 0,0 C -1,7 C 92 % 996,1 hPa 0,0 l/m 0 min 0 min 0 W/m 0,0 km/h (0 Bft) 95,74 %
28.11.2021 06:30 -0,1 C 0,0 C -1,7 C 92 % 996,2 hPa 0,0 l/m 0 min 0 min 0 W/m 3,2 km/h (1 Bft) 97,87 %
28.11.2021 06:32 -0,1 C 0,0 C -1,7 C 92 % 996,2 hPa 0,0 l/m 0 min 0 min 0 W/m 3,2 km/h (1 Bft) 100,00 %
28.11.2021 06:34 -0,1 C 0,0 C -1,7 C 92 % 996,2 hPa 0,0 l/m 0 min 0 min 0 W/m 3,2 km/h (1 Bft) 100,00 %
28.11.2021 06:36 -0,1 C 0,0 C -1,7 C 92 % 996,2 hPa 0,0 l/m 0 min 0 min 0 W/m 3,2 km/h (1 Bft) 100,00 %
28.11.2021 06:38 0,0 C 0,0 C -1,7 C 92 % 996,2 hPa 0,0 l/m 0 min 0 min 0 W/m 0,0 km/h (0 Bft) 100,00 %
28.11.2021 06:40 0,0 C 0,0 C -1,7 C 92 % 996,2 hPa 0,0 l/m 0 min 0 min 0 W/m 0,0 km/h (0 Bft) 100,00 %
28.11.2021 06:42 0,0 C 0,0 C -1,7 C 93 % 996,2 hPa 0,0 l/m 0 min 0 min 0 W/m 0,0 km/h (0 Bft) 97,87 %
28.11.2021 06:44 0,1 C 0,0 C -1,7 C 93 % 996,2 hPa 0,0 l/m 0 min 0 min 0 W/m 3,2 km/h (1 Bft) 100,00 %
28.11.2021 06:46 0,1 C 0,0 C -1,7 C 93 % 996,2 hPa 0,0 l/m 0 min 0 min 0 W/m 0,0 km/h (0 Bft) 100,00 %
28.11.2021 06:48 0,2 C 0,0 C -1,7 C 93 % 996,3 hPa 0,0 l/m 0 min 0 min 0 W/m 0,0 km/h (0 Bft) 100,00 %
28.11.2021 06:50 0,2 C 0,0 C -1,7 C 93 % 996,2 hPa 0,0 l/m 0 min 0 min 0 W/m 0,0 km/h (0 Bft) 100,00 %
28.11.2021 06:52 0,3 C 0,0 C -1,7 C 93 % 996,3 hPa 0,0 l/m 0 min 0 min 0 W/m 0,0 km/h (0 Bft) 100,00 %
28.11.2021 06:54 0,3 C 0,0 C -1,1 C 93 % 996,3 hPa 0,0 l/m 0 min 0 min 0 W/m 0,0 km/h (0 Bft) 100,00 %
28.11.2021 06:56 0,3 C 0,0 C -1,1 C 93 % 996,3 hPa 0,0 l/m 0 min 0 min 0 W/m 0,0 km/h (0 Bft) 97,87 %
28.11.2021 06:58 0,3 C 0,0 C -1,1 C 93 % 996,3 hPa 0,0 l/m 0 min 0 min 0 W/m 0,0 km/h (0 Bft) 100,00 %
28.11.2021 07:00 0,3 C 0,0 C -1,1 C 93 % 996,3 hPa 0,0 l/m 0 min 0 min 0 W/m 0,0 km/h (0 Bft) 100,00 %
28.11.2021 07:02 0,4 C 0,0 C -1,1 C 93 % 996,4 hPa 0,0 l/m 0 min 0 min 0 W/m 0,0 km/h (0 Bft) 97,87 %
28.11.2021 07:04 0,4 C 0,0 C -1,1 C 93 % 996,4 hPa 0,0 l/m 0 min 0 min 0 W/m 0,0 km/h (0 Bft) 100,00 %
28.11.2021 07:06 0,4 C 0,6 C -1,1 C 93 % 996,4 hPa 0,0 l/m 0 min 0 min 0 W/m 0,0 km/h (0 Bft) 98,31 %
28.11.2021 07:08 0,5 C 0,6 C -1,1 C 93 % 996,3 hPa 0,0 l/m 0 min 0 min 0 W/m 0,0 km/h (0 Bft) 97,87 %
28.11.2021 07:10 0,5 C 0,6 C -1,1 C 93 % 996,4 hPa 0,0 l/m 0 min 0 min 0 W/m 0,0 km/h (0 Bft) 100,00 %
28.11.2021 07:12 0,5 C 0,6 C -1,1 C 93 % 996,4 hPa 0,0 l/m 0 min 0 min 0 W/m 0,0 km/h (0 Bft) 97,87 %
28.11.2021 07:14 0,5 C 0,6 C -1,1 C 93 % 996,4 hPa 0,0 l/m 0 min 0 min 0 W/m 0,0 km/h (0 Bft) 97,83 %
28.11.2021 07:16 0,5 C 0,6 C -1,1 C 94 % 996,4 hPa 0,0 l/m 0 min 0 min 0 W/m 0,0 km/h (0 Bft) 97,87 %
28.11.2021 07:18 0,5 C 0,6 C -1,1 C 94 % 996,4 hPa 0,0 l/m 0 min 0 min 0 W/m 0,0 km/h (0 Bft) 100,00 %
28.11.2021 07:20 0,5 C 0,6 C -1,1 C 94 % 996,5 hPa 0,0 l/m 0 min 0 min 0 W/m 0,0 km/h (0 Bft) 100,00 %
28.11.2021 07:22 0,5 C 0,6 C -1,1 C 94 % 996,5 hPa 0,0 l/m 0 min 0 min 0 W/m 3,2 km/h (1 Bft) 97,87 %
28.11.2021 07:24 0,6 C 0,6 C -1,1 C 94 % 996,5 hPa 0,0 l/m 0 min 0 min 0 W/m 0,0 km/h (0 Bft) 97,87 %
28.11.2021 07:26 0,6 C 0,6 C -1,1 C 94 % 996,4 hPa 0,0 l/m 0 min 0 min 0 W/m 3,2 km/h (1 Bft) 97,87 %
28.11.2021 07:28 0,6 C 0,6 C -1,1 C 94 % 996,4 hPa 0,0 l/m 0 min 0 min 0 W/m 0,0 km/h (0 Bft) 96,55 %
28.11.2021 07:30 0,6 C 0,6 C -1,1 C 94 % 996,5 hPa 0,0 l/m 0 min 0 min 0 W/m 0,0 km/h (0 Bft) 97,14 %
28.11.2021 07:32 0,6 C 0,6 C -1,1 C 94 % 996,5 hPa 0,0 l/m 0 min 0 min 0 W/m 0,0 km/h (0 Bft) 98,31 %
28.11.2021 07:34 0,6 C 0,6 C -1,1 C 94 % 996,5 hPa 0,0 l/m 0 min 0 min 0 W/m 0,0 km/h (0 Bft) 97,14 %
28.11.2021 07:36 0,6 C 0,6 C -1,1 C 94 % 996,6 hPa 0,0 l/m 0 min 0 min 0 W/m 0,0 km/h (0 Bft) 97,87 %
28.11.2021 07:38 0,7 C 0,6 C -1,1 C 94 % 996,6 hPa 0,0 l/m 0 min 0 min 0 W/m 0,0 km/h (0 Bft) 97,83 %
28.11.2021 07:40 0,6 C 0,6 C -1,1 C 94 % 996,6 hPa 0,0 l/m 0 min 0 min 0 W/m 0,0 km/h (0 Bft) 95,74 %
28.11.2021 07:42 0,6 C 0,6 C -1,1 C 94 % 996,6 hPa 0,0 l/m 0 min 0 min 0 W/m 0,0 km/h (0 Bft) 97,87 %
28.11.2021 07:44 0,6 C 0,6 C -1,1 C 94 % 996,6 hPa 0,0 l/m 0 min 0 min 0 W/m 0,0 km/h (0 Bft) 93,62 %
28.11.2021 07:46 0,6 C 0,6 C -1,1 C 94 % 996,6 hPa 0,0 l/m 0 min 0 min 0 W/m 0,0 km/h (0 Bft) 97,87 %
28.11.2021 07:48 0,6 C 0,6 C -1,1 C 94 % 996,6 hPa 0,0 l/m 0 min 0 min 0 W/m 3,2 km/h (1 Bft) 93,62 %
28.11.2021 07:50 0,6 C 0,6 C -1,1 C 94 % 996,6 hPa 0,0 l/m 0 min 0 min 0 W/m 3,2 km/h (1 Bft) 95,65 %
28.11.2021 07:52 0,7 C 0,6 C -1,1 C 94 % 996,7 hPa 0,0 l/m 0 min 0 min 0 W/m 0,0 km/h (0 Bft) 97,87 %
28.11.2021 07:54 0,8 C 0,6 C -0,6 C 94 % 996,7 hPa 0,0 l/m 0 min 0 min 0 W/m 0,0 km/h (0 Bft) 95,74 %
28.11.2021 07:56 0,8 C 0,6 C -1,1 C 94 % 996,7 hPa 0,0 l/m 0 min 0 min 0 W/m 6,4 km/h (2 Bft) 95,74 %
28.11.2021 07:58 0,8 C 0,6 C -1,1 C 94 % 996,7 hPa 0,0 l/m 0 min 0 min 0 W/m 3,2 km/h (1 Bft) 98,00 %
28.11.2021 08:00 0,8 C 0,6 C -1,1 C 94 % 996,8 hPa 0,0 l/m 0 min 0 min 0 W/m 0,0 km/h (0 Bft) 97,83 %
28.11.2021 08:02 0,8 C 0,6 C -1,1 C 94 % 996,7 hPa 0,0 l/m 0 min 0 min 0 W/m 0,0 km/h (0 Bft) 98,04 %
28.11.2021 08:04 0,9 C 0,6 C -1,1 C 94 % 996,8 hPa 0,0 l/m 0 min 0 min 0 W/m 0,0 km/h (0 Bft) 97,87 %
28.11.2021 08:06 0,9 C 0,6 C -1,1 C 94 % 996,8 hPa 0,0 l/m 0 min 0 min 0 W/m 0,0 km/h (0 Bft) 97,87 %
28.11.2021 08:08 0,9 C 0,6 C -1,1 C 94 % 996,8 hPa 0,0 l/m 0 min 0 min 0 W/m 0,0 km/h (0 Bft) 93,62 %
28.11.2021 08:10 0,9 C 0,6 C -1,1 C 94 % 996,8 hPa 0,0 l/m 0 min 0 min 0 W/m 0,0 km/h (0 Bft) 95,74 %
28.11.2021 08:12 0,9 C 0,6 C -1,1 C 94 % 996,9 hPa 0,0 l/m 0 min 0 min 0 W/m 0,0 km/h (0 Bft) 95,65 %
28.11.2021 08:14 0,9 C 0,6 C -1,1 C 94 % 996,9 hPa 0,0 l/m 0 min 0 min 0 W/m 0,0 km/h (0 Bft) 95,74 %
28.11.2021 08:16 0,9 C 0,6 C -1,1 C 94 % 996,9 hPa 0,0 l/m 0 min 0 min 1 W/m 0,0 km/h (0 Bft) 95,74 %
28.11.2021 08:18 0,9 C 0,6 C -1,1 C 94 % 996,9 hPa 0,0 l/m 0 min 0 min 5 W/m 0,0 km/h (0 Bft) 97,87 %
28.11.2021 08:20 0,9 C 0,6 C -1,1 C 94 % 996,9 hPa 0,0 l/m 0 min 0 min 5 W/m 0,0 km/h (0 Bft) 97,87 %
28.11.2021 08:22 0,9 C 0,6 C -1,1 C 94 % 996,9 hPa 0,0 l/m 0 min 0 min 5 W/m 0,0 km/h (0 Bft) 95,65 %
28.11.2021 08:24 0,9 C 0,6 C -1,1 C 94 % 997,0 hPa 0,0 l/m 0 min 0 min 5 W/m 0,0 km/h (0 Bft) 97,87 %
28.11.2021 08:26 0,9 C 0,6 C -1,1 C 94 % 997,0 hPa 0,0 l/m 0 min 0 min 5 W/m 0,0 km/h (0 Bft) 95,74 %
28.11.2021 08:28 0,9 C 0,6 C -1,1 C 94 % 997,0 hPa 0,0 l/m 0 min 0 min 5 W/m 0,0 km/h (0 Bft) 100,00 %
28.11.2021 08:30 0,9 C 0,6 C -1,1 C 94 % 997,1 hPa 0,0 l/m 0 min 0 min 5 W/m 0,0 km/h (0 Bft) 97,87 %
28.11.2021 08:32 0,9 C 0,6 C -1,1 C 94 % 997,1 hPa 0,0 l/m 0 min 0 min 6 W/m 0,0 km/h (0 Bft) 97,87 %
28.11.2021 08:34 0,9 C 0,6 C -1,1 C 94 % 997,1 hPa 0,0 l/m 0 min 0 min 7 W/m 0,0 km/h (0 Bft) 97,83 %
28.11.2021 08:36 1,0 C 0,6 C -1,1 C 94 % 997,0 hPa 0,0 l/m 0 min 0 min 7 W/m 0,0 km/h (0 Bft) 97,87 %
28.11.2021 08:38 0,9 C 0,6 C -1,1 C 94 % 997,0 hPa 0,0 l/m 0 min 0 min 7 W/m 0,0 km/h (0 Bft) 97,87 %
28.11.2021 08:40 0,9 C 0,6 C -1,1 C 94 % 997,1 hPa 0,0 l/m 0 min 0 min 7 W/m 3,2 km/h (1 Bft) 95,74 %
28.11.2021 08:42 0,9 C 0,6 C -1,1 C 94 % 997,0 hPa 0,0 l/m 0 min 0 min 6 W/m 0,0 km/h (0 Bft) 95,74 %
28.11.2021 08:44 1,0 C 0,6 C -1,1 C 94 % 997,1 hPa 0,0 l/m 0 min 0 min 5 W/m 0,0 km/h (0 Bft) 95,74 %
28.11.2021 08:46 1,0 C 0,6 C -0,6 C 94 % 997,1 hPa 0,0 l/m 0 min 0 min 5 W/m 0,0 km/h (0 Bft) 95,65 %
28.11.2021 08:48 1,0 C 0,6 C -1,1 C 94 % 997,1 hPa 0,0 l/m 0 min 0 min 7 W/m 0,0 km/h (0 Bft) 95,74 %
28.11.2021 08:50 1,0 C 0,6 C -0,6 C 94 % 997,1 hPa 0,0 l/m 0 min 0 min 7 W/m 0,0 km/h (0 Bft) 97,87 %
28.11.2021 08:52 1,0 C 0,6 C -0,6 C 94 % 997,1 hPa 0,0 l/m 0 min 0 min 7 W/m 0,0 km/h (0 Bft) 97,87 %
28.11.2021 08:54 1,0 C 0,6 C -0,6 C 94 % 997,1 hPa 0,0 l/m 0 min 0 min 7 W/m 0,0 km/h (0 Bft) 97,87 %
28.11.2021 08:56 1,0 C 0,6 C -0,6 C 94 % 997,2 hPa 0,0 l/m 0 min 0 min 7 W/m 0,0 km/h (0 Bft) 97,87 %
28.11.2021 08:58 1,0 C 0,6 C -0,6 C 94 % 997,2 hPa 0,0 l/m 0 min 0 min 7 W/m 0,0 km/h (0 Bft) 97,83 %
28.11.2021 09:00 1,0 C 0,6 C -0,6 C 94 % 997,2 hPa 0,0 l/m 0 min 0 min 9 W/m 0,0 km/h (0 Bft) 97,87 %
28.11.2021 09:02 1,0 C 0,6 C -0,6 C 94 % 997,2 hPa 0,0 l/m 0 min 0 min 9 W/m 0,0 km/h (0 Bft) 91,67 %
28.11.2021 09:04 1,0 C 0,6 C -0,6 C 94 % 997,2 hPa 0,0 l/m 0 min 0 min 9 W/m 0,0 km/h (0 Bft) 95,74 %
28.11.2021 09:06 1,0 C 0,6 C -0,6 C 94 % 997,3 hPa 0,0 l/m 0 min 0 min 9 W/m 0,0 km/h (0 Bft) 97,87 %
28.11.2021 09:08 1,0 C 0,6 C -0,6 C 94 % 997,3 hPa 0,0 l/m 0 min 0 min 11 W/m 0,0 km/h (0 Bft) 100,00 %
28.11.2021 09:10 1,0 C 0,6 C -0,6 C 94 % 997,4 hPa 0,0 l/m 0 min 0 min 16 W/m 0,0 km/h (0 Bft) 100,00 %
28.11.2021 09:12 1,0 C 0,6 C -0,6 C 94 % 997,3 hPa 0,0 l/m 0 min 0 min 20 W/m 0,0 km/h (0 Bft) 97,87 %
28.11.2021 09:14 1,1 C 1,1 C -0,6 C 94 % 997,4 hPa 0,0 l/m 0 min 0 min 21 W/m 0,0 km/h (0 Bft) 97,87 %
28.11.2021 09:16 1,0 C 1,1 C -0,6 C 94 % 997,4 hPa 0,0 l/m 0 min 0 min 21 W/m 0,0 km/h (0 Bft) 97,87 %
28.11.2021 09:18 1,1 C 1,1 C -0,6 C 94 % 997,4 hPa 0,0 l/m 0 min 0 min 22 W/m 0,0 km/h (0 Bft) 100,00 %
28.11.2021 09:20 1,1 C 1,1 C -0,6 C 94 % 997,4 hPa 0,0 l/m 0 min 0 min 24 W/m 0,0 km/h (0 Bft) 100,00 %
28.11.2021 09:22 1,1 C 1,1 C -0,6 C 94 % 997,4 hPa 0,0 l/m 0 min 0 min 26 W/m 0,0 km/h (0 Bft) 95,65 %
28.11.2021 09:24 1,1 C 1,1 C -0,6 C 94 % 997,4 hPa 0,0 l/m 0 min 0 min 29 W/m 0,0 km/h (0 Bft) 93,62 %
28.11.2021 09:26 1,1 C 1,1 C -0,6 C 95 % 997,4 hPa 0,0 l/m 0 min 0 min 32 W/m 0,0 km/h (0 Bft) 97,87 %
28.11.2021 09:28 1,1 C 1,1 C -0,6 C 95 % 997,5 hPa 0,0 l/m 0 min 0 min 32 W/m 0,0 km/h (0 Bft) 100,00 %
28.11.2021 09:30 1,1 C 1,1 C -0,6 C 95 % 997,5 hPa 0,0 l/m 0 min 0 min 33 W/m 0,0 km/h (0 Bft) 100,00 %
28.11.2021 09:32 1,1 C 1,1 C 0,0 C 95 % 997,5 hPa 0,0 l/m 0 min 0 min 33 W/m 0,0 km/h (0 Bft) 100,00 %
28.11.2021 09:34 1,2 C 1,1 C 0,0 C 95 % 997,5 hPa 0,0 l/m 0 min 0 min 35 W/m 0,0 km/h (0 Bft) 95,74 %
28.11.2021 09:36 1,2 C 1,1 C 0,0 C 95 % 997,5 hPa 0,0 l/m 0 min 0 min 37 W/m 0,0 km/h (0 Bft) 95,74 %
28.11.2021 09:38 1,2 C 1,7 C 0,0 C 95 % 997,6 hPa 0,0 l/m 0 min 0 min 34 W/m 0,0 km/h (0 Bft) 95,74 %
28.11.2021 09:40 1,3 C 1,7 C 0,0 C 95 % 997,6 hPa 0,0 l/m 0 min 0 min 35 W/m 3,2 km/h (1 Bft) 93,62 %
28.11.2021 09:42 1,3 C 1,7 C 0,0 C 95 % 997,6 hPa 0,0 l/m 0 min 0 min 37 W/m 0,0 km/h (0 Bft) 93,62 %
28.11.2021 09:44 1,4 C 1,7 C 0,0 C 95 % 997,6 hPa 0,0 l/m 0 min 0 min 39 W/m 3,2 km/h (1 Bft) 95,65 %
28.11.2021 09:46 1,4 C 1,7 C 0,0 C 95 % 997,6 hPa 0,0 l/m 0 min 0 min 41 W/m 0,0 km/h (0 Bft) 95,74 %
28.11.2021 09:48 1,4 C 1,7 C 0,0 C 95 % 997,6 hPa 0,0 l/m 0 min 0 min 42 W/m 3,2 km/h (1 Bft) 93,62 %
28.11.2021 09:50 1,5 C 1,7 C 0,0 C 95 % 997,6 hPa 0,0 l/m 0 min 0 min 42 W/m 3,2 km/h (1 Bft) 95,74 %
28.11.2021 09:52 1,5 C 1,7 C 0,0 C 95 % 997,6 hPa 0,0 l/m 0 min 0 min 45 W/m 0,0 km/h (0 Bft) 95,74 %
28.11.2021 09:54 1,5 C 1,7 C 0,0 C 95 % 997,6 hPa 0,0 l/m 0 min 0 min 49 W/m 0,0 km/h (0 Bft) 91,49 %
28.11.2021 09:56 1,6 C 1,7 C 0,0 C 95 % 997,7 hPa 0,0 l/m 0 min 0 min 49 W/m 3,2 km/h (1 Bft) 95,65 %
28.11.2021 09:58 1,6 C 1,7 C 0,0 C 95 % 997,7 hPa 0,0 l/m 0 min 0 min 49 W/m 3,2 km/h (1 Bft) 95,74 %
28.11.2021 10:00 1,6 C 1,7 C 0,0 C 95 % 997,8 hPa 0,0 l/m 0 min 0 min 47 W/m 3,2 km/h (1 Bft) 93,62 %
28.11.2021 10:02 1,7 C 1,7 C 0,0 C 95 % 997,8 hPa 0,0 l/m 0 min 0 min 49 W/m 0,0 km/h (0 Bft) 95,83 %
28.11.2021 10:04 1,7 C 2,2 C 0,0 C 95 % 997,9 hPa 0,0 l/m 0 min 0 min 49 W/m 0,0 km/h (0 Bft) 93,62 %
28.11.2021 10:06 1,8 C 1,7 C 0,0 C 95 % 997,8 hPa 0,0 l/m 0 min 0 min 47 W/m 3,2 km/h (1 Bft) 97,62 %
28.11.2021 10:08 1,8 C 1,7 C 0,0 C 95 % 997,8 hPa 0,0 l/m 0 min 0 min 48 W/m 9,7 km/h (2 Bft) 97,87 %
28.11.2021 10:10 1,8 C 1,7 C 0,0 C 95 % 997,8 hPa 0,0 l/m 0 min 0 min 50 W/m 3,2 km/h (1 Bft) 97,83 %
28.11.2021 10:12 1,8 C 2,2 C 0,0 C 95 % 997,8 hPa 0,0 l/m 0 min 0 min 52 W/m 3,2 km/h (1 Bft) 97,87 %
28.11.2021 10:14 1,8 C 2,2 C 0,0 C 95 % 997,8 hPa 0,0 l/m 0 min 0 min 54 W/m 3,2 km/h (1 Bft) 97,87 %
28.11.2021 10:18 1,8 C 2,2 C 0,0 C 95 % 997,9 hPa 0,0 l/m 0 min 0 min 53 W/m 6,4 km/h (2 Bft) 100,00 %
28.11.2021 10:20 1,8 C 2,2 C 0,6 C 95 % 997,8 hPa 0,0 l/m 0 min 0 min 54 W/m 3,2 km/h (1 Bft) 100,00 %
28.11.2021 10:24 1,9 C 2,2 C 0,6 C 95 % 997,9 hPa 0,0 l/m 0 min 0 min 54 W/m 9,7 km/h (2 Bft) 98,28 %
28.11.2021 10:26 1,9 C 1,7 C 0,6 C 95 % 997,9 hPa 0,0 l/m 0 min 0 min 57 W/m 3,2 km/h (1 Bft) 100,00 %
28.11.2021 10:28 1,9 C 2,2 C 0,6 C 95 % 997,9 hPa 0,0 l/m 0 min 0 min 62 W/m 3,2 km/h (1 Bft) 100,00 %
28.11.2021 10:30 1,9 C 2,2 C 0,6 C 95 % 997,8 hPa 0,0 l/m 0 min 0 min 63 W/m 9,7 km/h (2 Bft) 97,87 %
28.11.2021 10:32 1,9 C 2,2 C 0,6 C 95 % 997,9 hPa 0,0 l/m 0 min 0 min 67 W/m 6,4 km/h (2 Bft) 100,00 %
28.11.2021 10:34 1,9 C 2,2 C 0,6 C 95 % 997,8 hPa 0,0 l/m 0 min 0 min 71 W/m 6,4 km/h (2 Bft) 100,00 %
28.11.2021 10:36 1,9 C 2,2 C 0,6 C 95 % 997,9 hPa 0,0 l/m 0 min 0 min 74 W/m 3,2 km/h (1 Bft) 100,00 %
28.11.2021 10:38 2,0 C 2,2 C 0,6 C 95 % 998,0 hPa 0,0 l/m 0 min 0 min 77 W/m 9,7 km/h (2 Bft) 97,87 %
28.11.2021 10:40 2,0 C 2,2 C 0,6 C 95 % 998,0 hPa 0,0 l/m 0 min 0 min 75 W/m 0,0 km/h (0 Bft) 100,00 %
28.11.2021 10:42 2,0 C 2,2 C 0,6 C 95 % 998,0 hPa 0,0 l/m 0 min 0 min 74 W/m 6,4 km/h (2 Bft) 100,00 %
28.11.2021 10:44 2,0 C 2,2 C 0,6 C 95 % 998,0 hPa 0,0 l/m 0 min 0 min 76 W/m 6,4 km/h (2 Bft) 97,87 %
28.11.2021 10:46 2,1 C 2,8 C 0,6 C 95 % 998,0 hPa 0,0 l/m 0 min 0 min 77 W/m 3,2 km/h (1 Bft) 100,00 %
28.11.2021 10:48 2,1 C 2,8 C 0,6 C 95 % 998,0 hPa 0,0 l/m 0 min 0 min 83 W/m 3,2 km/h (1 Bft) 100,00 %
28.11.2021 10:50 2,1 C 2,8 C 0,6 C 95 % 998,0 hPa 0,0 l/m 0 min 0 min 88 W/m 3,2 km/h (1 Bft) 100,00 %
28.11.2021 10:52 2,1 C 2,8 C 0,6 C 95 % 998,0 hPa 0,0 l/m 0 min 0 min 91 W/m 9,7 km/h (2 Bft) 97,87 %
28.11.2021 10:54 2,1 C 2,8 C 0,6 C 95 % 998,0 hPa 0,0 l/m 0 min 0 min 94 W/m 3,2 km/h (1 Bft) 100,00 %
28.11.2021 10:56 2,2 C 2,8 C 0,6 C 95 % 998,0 hPa 0,0 l/m 0 min 0 min 91 W/m 3,2 km/h (1 Bft) 100,00 %
28.11.2021 10:58 2,2 C 2,8 C 1,1 C 95 % 998,0 hPa 0,0 l/m 0 min 0 min 90 W/m 3,2 km/h (1 Bft) 100,00 %
28.11.2021 11:00 2,3 C 2,8 C 1,1 C 95 % 997,9 hPa 0,0 l/m 0 min 0 min 101 W/m 3,2 km/h (1 Bft) 100,00 %
28.11.2021 11:02 2,3 C 2,8 C 1,1 C 95 % 997,9 hPa 0,0 l/m 0 min 0 min 109 W/m 3,2 km/h (1 Bft) 100,00 %
28.11.2021 11:04 2,3 C 3,3 C 1,1 C 95 % 997,9 hPa 0,0 l/m 0 min 0 min 110 W/m 6,4 km/h (2 Bft) 100,00 %
28.11.2021 11:06 2,4 C 3,3 C 1,1 C 95 % 997,9 hPa 0,0 l/m 0 min 0 min 116 W/m 3,2 km/h (1 Bft) 97,87 %
28.11.2021 11:08 2,4 C 2,8 C 1,1 C 95 % 997,9 hPa 0,0 l/m 0 min 0 min 114 W/m 6,4 km/h (2 Bft) 97,87 %
28.11.2021 11:10 2,4 C 3,3 C 1,1 C 95 % 998,0 hPa 0,0 l/m 0 min 0 min 119 W/m 6,4 km/h (2 Bft) 100,00 %
28.11.2021 11:12 2,4 C 3,3 C 1,1 C 95 % 998,0 hPa 0,0 l/m 0 min 0 min 124 W/m 6,4 km/h (2 Bft) 100,00 %
28.11.2021 11:14 2,5 C 3,3 C 1,1 C 95 % 998,0 hPa 0,0 l/m 0 min 0 min 119 W/m 6,4 km/h (2 Bft) 100,00 %
28.11.2021 11:16 2,5 C 3,3 C 1,1 C 95 % 998,0 hPa 0,0 l/m 0 min 0 min 113 W/m 3,2 km/h (1 Bft) 100,00 %
28.11.2021 11:18 2,6 C 3,3 C 1,7 C 95 % 998,0 hPa 0,0 l/m 0 min 0 min 116 W/m 3,2 km/h (1 Bft) 97,87 %
28.11.2021 11:20 2,6 C 3,9 C 1,7 C 95 % 998,0 hPa 0,0 l/m 0 min 0 min 123 W/m 6,4 km/h (2 Bft) 97,83 %
28.11.2021 11:22 2,6 C 3,9 C 1,7 C 95 % 998,0 hPa 0,0 l/m 0 min 0 min 129 W/m 6,4 km/h (2 Bft) 95,74 %
28.11.2021 11:24 2,7 C 3,9 C 1,7 C 95 % 998,0 hPa 0,0 l/m 0 min 0 min 128 W/m 6,4 km/h (2 Bft) 97,87 %
28.11.2021 11:26 2,7 C 3,9 C 1,7 C 95 % 998,0 hPa 0,0 l/m 0 min 0 min 127 W/m 9,7 km/h (2 Bft) 93,62 %
28.11.2021 11:28 2,8 C 3,9 C 1,7 C 95 % 998,0 hPa 0,0 l/m 0 min 0 min 126 W/m 3,2 km/h (1 Bft) 95,74 %
28.11.2021 11:30 2,8 C 3,9 C 1,7 C 95 % 998,0 hPa 0,0 l/m 0 min 0 min 135 W/m 6,4 km/h (2 Bft) 95,74 %
28.11.2021 11:32 2,9 C 4,4 C 1,7 C 95 % 998,0 hPa 0,0 l/m 0 min 0 min 137 W/m 9,7 km/h (2 Bft) 95,74 %
28.11.2021 11:34 2,9 C 4,4 C 1,7 C 95 % 998,0 hPa 0,0 l/m 0 min 0 min 137 W/m 9,7 km/h (2 Bft) 95,65 %
28.11.2021 11:36 2,9 C 4,4 C 1,7 C 95 % 998,0 hPa 0,0 l/m 0 min 0 min 135 W/m 9,7 km/h (2 Bft) 95,74 %
28.11.2021 11:38 3,0 C 4,4 C 1,7 C 95 % 998,0 hPa 0,0 l/m 0 min 0 min 138 W/m 3,2 km/h (1 Bft) 93,62 %
28.11.2021 11:40 3,0 C 4,4 C 1,7 C 95 % 998,0 hPa 0,0 l/m 0 min 0 min 136 W/m 6,4 km/h (2 Bft) 93,62 %
28.11.2021 11:42 3,0 C 4,4 C 1,7 C 95 % 998,0 hPa 0,0 l/m 0 min 0 min 132 W/m 9,7 km/h (2 Bft) 95,74 %
28.11.2021 11:44 3,1 C 4,4 C 1,7 C 95 % 998,0 hPa 0,0 l/m 0 min 0 min 125 W/m 6,4 km/h (2 Bft) 95,65 %
28.11.2021 11:46 3,2 C 4,4 C 1,7 C 95 % 998,0 hPa 0,0 l/m 0 min 0 min 118 W/m 9,7 km/h (2 Bft) 95,74 %
28.11.2021 11:48 3,2 C 4,4 C 1,7 C 95 % 998,0 hPa 0,0 l/m 0 min 0 min 105 W/m 6,4 km/h (2 Bft) 95,74 %
28.11.2021 11:50 3,3 C 4,4 C 1,7 C 95 % 997,9 hPa 0,0 l/m 0 min 0 min 82 W/m 9,7 km/h (2 Bft) 97,87 %
28.11.2021 11:52 3,3 C 4,4 C 1,7 C 95 % 998,0 hPa 0,0 l/m 0 min 0 min 73 W/m 6,4 km/h (2 Bft) 95,74 %
28.11.2021 11:54 3,4 C 4,4 C 1,7 C 95 % 998,0 hPa 0,0 l/m 0 min 0 min 68 W/m 6,4 km/h (2 Bft) 95,74 %
28.11.2021 11:56 3,4 C 4,4 C 1,7 C 94 % 998,0 hPa 0,0 l/m 0 min 0 min 70 W/m 12,9 km/h (3 Bft) 93,48 %
28.11.2021 11:58 3,4 C 4,4 C 1,7 C 94 % 997,9 hPa 0,0 l/m 0 min 0 min 84 W/m 12,9 km/h (3 Bft) 95,74 %
28.11.2021 12:00 3,4 C 4,4 C 1,7 C 94 % 997,9 hPa 0,0 l/m 0 min 0 min 83 W/m 12,9 km/h (3 Bft) 95,74 %
28.11.2021 12:02 3,5 C 4,4 C 1,7 C 94 % 997,9 hPa 0,0 l/m 0 min 0 min 67 W/m 9,7 km/h (2 Bft) 94,34 %
28.11.2021 12:04 3,5 C 4,4 C 1,7 C 94 % 997,9 hPa 0,0 l/m 0 min 0 min 70 W/m 6,4 km/h (2 Bft) 95,74 %
28.11.2021 12:08 3,5 C 4,4 C 1,7 C 94 % 997,9 hPa 0,0 l/m 0 min 0 min 80 W/m 12,9 km/h (3 Bft) 97,85 %
28.11.2021 12:10 3,6 C 4,4 C 1,7 C 94 % 997,9 hPa 0,0 l/m 0 min 0 min 87 W/m 16,1 km/h (3 Bft) 97,87 %
28.11.2021 12:12 3,6 C 4,4 C 1,7 C 94 % 998,0 hPa 0,0 l/m 0 min 0 min 93 W/m 12,9 km/h (3 Bft) 97,56 %
28.11.2021 12:14 3,6 C 4,4 C 1,7 C 94 % 998,0 hPa 0,0 l/m 0 min 0 min 83 W/m 9,7 km/h (2 Bft) 97,87 %
28.11.2021 12:16 3,6 C 4,4 C 1,7 C 94 % 998,0 hPa 0,0 l/m 0 min 0 min 71 W/m 6,4 km/h (2 Bft) 98,11 %
28.11.2021 12:18 3,6 C 4,4 C 1,7 C 94 % 998,0 hPa 0,0 l/m 0 min 0 min 72 W/m 9,7 km/h (2 Bft) 97,83 %
28.11.2021 12:20 3,7 C 4,4 C 1,7 C 94 % 998,0 hPa 0,0 l/m 0 min 0 min 72 W/m 9,7 km/h (2 Bft) 97,87 %
28.11.2021 12:22 3,7 C 4,4 C 1,7 C 94 % 998,0 hPa 0,0 l/m 0 min 0 min 80 W/m 12,9 km/h (3 Bft) 97,87 %
28.11.2021 12:24 3,7 C 5,0 C 1,7 C 93 % 997,9 hPa 0,0 l/m 0 min 0 min 94 W/m 16,1 km/h (3 Bft) 95,74 %
28.11.2021 12:26 3,8 C 5,0 C 1,7 C 93 % 998,0 hPa 0,0 l/m 0 min 0 min 91 W/m 6,4 km/h (2 Bft) 97,87 %
28.11.2021 12:28 3,8 C 5,0 C 1,7 C 93 % 998,0 hPa 0,0 l/m 0 min 0 min 125 W/m 9,7 km/h (2 Bft) 97,87 %
28.11.2021 12:30 3,9 C 6,1 C 1,7 C 93 % 998,0 hPa 0,0 l/m 2 min 0 min 251 W/m 6,4 km/h (2 Bft) 97,83 %
28.11.2021 12:32 3,9 C 6,7 C 2,2 C 93 % 998,0 hPa 0,0 l/m 2 min 0 min 319 W/m 9,7 km/h (2 Bft) 97,87 %
28.11.2021 12:34 4,0 C 7,2 C 2,2 C 93 % 997,9 hPa 0,0 l/m 2 min 0 min 296 W/m 9,7 km/h (2 Bft) 97,87 %
28.11.2021 12:36 4,1 C 8,3 C 2,2 C 93 % 998,0 hPa 0,0 l/m 2 min 0 min 336 W/m 12,9 km/h (3 Bft) 97,87 %
28.11.2021 12:38 4,1 C 9,4 C 2,2 C 93 % 997,9 hPa 0,0 l/m 2 min 0 min 296 W/m 9,7 km/h (2 Bft) 95,74 %
28.11.2021 12:40 4,2 C 8,3 C 2,2 C 92 % 998,0 hPa 0,0 l/m 2 min 0 min 187 W/m 12,9 km/h (3 Bft) 97,87 %
28.11.2021 12:42 4,3 C 7,2 C 2,2 C 92 % 998,0 hPa 0,0 l/m 0 min 0 min 149 W/m 12,9 km/h (3 Bft) 97,83 %
28.11.2021 12:44 4,3 C 6,1 C 2,2 C 92 % 998,0 hPa 0,0 l/m 0 min 0 min 114 W/m 6,4 km/h (2 Bft) 97,87 %
28.11.2021 12:46 4,3 C 8,3 C 2,2 C 92 % 998,0 hPa 0,0 l/m 2 min 0 min 191 W/m 9,7 km/h (2 Bft) 97,87 %
28.11.2021 12:48 4,3 C 10,6 C 2,2 C 92 % 997,9 hPa 0,0 l/m 2 min 0 min 323 W/m 12,9 km/h (3 Bft) 100,00 %
28.11.2021 12:50 4,4 C 12,2 C 2,2 C 91 % 997,9 hPa 0,0 l/m 2 min 0 min 393 W/m 12,9 km/h (3 Bft) 100,00 %
28.11.2021 12:52 4,5 C 11,7 C 2,8 C 92 % 998,0 hPa 0,0 l/m 2 min 0 min 386 W/m 16,1 km/h (3 Bft) 100,00 %
28.11.2021 12:54 4,6 C 9,4 C 2,8 C 91 % 997,9 hPa 0,0 l/m 2 min 0 min 158 W/m 19,3 km/h (3 Bft) 100,00 %
28.11.2021 12:56 4,6 C 8,3 C 2,8 C 91 % 998,0 hPa 0,0 l/m 0 min 0 min 123 W/m 16,1 km/h (3 Bft) 100,00 %
28.11.2021 12:58 4,6 C 7,2 C 2,8 C 90 % 998,0 hPa 0,0 l/m 0 min 0 min 99 W/m 12,9 km/h (3 Bft) 100,00 %
28.11.2021 13:00 4,6 C 6,7 C 2,2 C 90 % 998,0 hPa 0,0 l/m 0 min 0 min 84 W/m 12,9 km/h (3 Bft) 100,00 %
28.11.2021 13:02 4,6 C 6,7 C 2,2 C 90 % 998,0 hPa 0,0 l/m 0 min 0 min 81 W/m 16,1 km/h (3 Bft) 100,00 %
28.11.2021 13:04 4,6 C 6,1 C 2,2 C 89 % 998,1 hPa 0,0 l/m 0 min 0 min 70 W/m 9,7 km/h (2 Bft) 97,56 %
28.11.2021 13:06 4,6 C 5,0 C 2,2 C 89 % 998,1 hPa 0,0 l/m 0 min 0 min 75 W/m 16,1 km/h (3 Bft) 97,83 %
28.11.2021 13:08 4,5 C 5,0 C 2,2 C 88 % 998,1 hPa 0,0 l/m 0 min 0 min 85 W/m 12,9 km/h (3 Bft) 100,00 %
28.11.2021 13:10 4,5 C 4,4 C 2,2 C 88 % 998,1 hPa 0,0 l/m 0 min 0 min 80 W/m 6,4 km/h (2 Bft) 97,87 %
28.11.2021 13:12 4,5 C 4,4 C 2,2 C 88 % 998,1 hPa 0,0 l/m 0 min 0 min 66 W/m 16,1 km/h (3 Bft) 100,00 %
28.11.2021 13:14 4,5 C 4,4 C 2,2 C 88 % 998,1 hPa 0,0 l/m 0 min 0 min 60 W/m 16,1 km/h (3 Bft) 97,87 %
28.11.2021 13:16 4,4 C 3,9 C 2,2 C 88 % 998,1 hPa 0,0 l/m 0 min 0 min 53 W/m 16,1 km/h (3 Bft) 100,00 %
28.11.2021 13:18 4,4 C 3,9 C 2,2 C 88 % 998,2 hPa 0,0 l/m 0 min 0 min 48 W/m 19,3 km/h (3 Bft) 100,00 %
28.11.2021 13:20 4,4 C 3,9 C 1,7 C 88 % 998,2 hPa 0,0 l/m 0 min 0 min 45 W/m 12,9 km/h (3 Bft) 100,00 %
28.11.2021 13:22 4,3 C 3,9 C 1,7 C 88 % 998,2 hPa 0,0 l/m 0 min 0 min 44 W/m 9,7 km/h (2 Bft) 97,87 %
28.11.2021 13:24 4,3 C 3,9 C 1,7 C 87 % 998,1 hPa 0,0 l/m 0 min 0 min 46 W/m 6,4 km/h (2 Bft) 97,87 %
28.11.2021 13:26 4,3 C 3,9 C 1,7 C 88 % 998,1 hPa 0,0 l/m 0 min 0 min 52 W/m 9,7 km/h (2 Bft) 100,00 %
28.11.2021 13:28 4,3 C 3,9 C 1,7 C 87 % 998,1 hPa 0,0 l/m 0 min 0 min 53 W/m 16,1 km/h (3 Bft) 100,00 %
28.11.2021 13:30 4,2 C 3,9 C 1,7 C 87 % 998,2 hPa 0,0 l/m 0 min 0 min 52 W/m 6,4 km/h (2 Bft) 100,00 %
28.11.2021 13:32 4,1 C 3,9 C 1,7 C 87 % 998,2 hPa 0,0 l/m 0 min 0 min 51 W/m 16,1 km/h (3 Bft) 100,00 %
28.11.2021 13:34 4,1 C 3,9 C 1,7 C 87 % 998,2 hPa 0,0 l/m 0 min 0 min 55 W/m 6,4 km/h (2 Bft) 100,00 %
28.11.2021 13:36 4,0 C 3,9 C 1,7 C 87 % 998,2 hPa 0,0 l/m 0 min 0 min 50 W/m 12,9 km/h (3 Bft) 97,87 %
28.11.2021 13:38 4,0 C 3,3 C 1,7 C 87 % 998,2 hPa 0,0 l/m 0 min 0 min 47 W/m 6,4 km/h (2 Bft) 97,87 %
28.11.2021 13:40 4,0 C 3,3 C 1,7 C 87 % 998,1 hPa 0,0 l/m 0 min 0 min 50 W/m 6,4 km/h (2 Bft) 100,00 %
28.11.2021 13:42 3,9 C 3,9 C 1,7 C 87 % 998,1 hPa 0,0 l/m 0 min 0 min 61 W/m 3,2 km/h (1 Bft) 100,00 %
28.11.2021 13:44 3,9 C 5,0 C 1,7 C 87 % 998,1 hPa 0,0 l/m 0 min 0 min 111 W/m 9,7 km/h (2 Bft) 97,87 %
28.11.2021 13:46 3,9 C 6,7 C 1,7 C 87 % 998,2 hPa 0,0 l/m 2 min 0 min 242 W/m 12,9 km/h (3 Bft) 95,74 %
28.11.2021 13:48 4,0 C 7,8 C 1,7 C 87 % 998,2 hPa 0,0 l/m 2 min 0 min 280 W/m 9,7 km/h (2 Bft) 95,74 %
28.11.2021 13:50 4,0 C 8,3 C 1,7 C 87 % 998,2 hPa 0,0 l/m 2 min 0 min 267 W/m 9,7 km/h (2 Bft) 97,87 %
28.11.2021 13:52 4,1 C 8,3 C 1,7 C 88 % 998,1 hPa 0,0 l/m 2 min 0 min 191 W/m 9,7 km/h (2 Bft) 97,83 %
28.11.2021 13:54 4,2 C 8,9 C 2,2 C 88 % 998,2 hPa 0,0 l/m 2 min 0 min 240 W/m 9,7 km/h (2 Bft) 95,74 %
28.11.2021 13:56 4,3 C 9,4 C 2,2 C 88 % 998,1 hPa 0,0 l/m 2 min 0 min 325 W/m 16,1 km/h (3 Bft) 97,87 %
28.11.2021 13:58 4,4 C 9,4 C 2,2 C 87 % 998,1 hPa 0,0 l/m 2 min 0 min 330 W/m 6,4 km/h (2 Bft) 97,87 %
28.11.2021 14:00 4,5 C 10,0 C 2,2 C 87 % 998,1 hPa 0,0 l/m 2 min 0 min 337 W/m 6,4 km/h (2 Bft) 97,87 %
28.11.2021 14:02 4,6 C 10,6 C 2,2 C 87 % 998,1 hPa 0,0 l/m 2 min 0 min 336 W/m 12,9 km/h (3 Bft) 95,83 %
28.11.2021 14:04 4,8 C 11,1 C 2,2 C 87 % 998,1 hPa 0,0 l/m 2 min 0 min 338 W/m 9,7 km/h (2 Bft) 97,56 %
28.11.2021 14:06 4,9 C 10,6 C 2,8 C 87 % 998,1 hPa 0,0 l/m 2 min 0 min 302 W/m 9,7 km/h (2 Bft) 95,74 %
28.11.2021 14:08 5,0 C 8,9 C 2,8 C 86 % 998,1 hPa 0,0 l/m 2 min 0 min 207 W/m 12,9 km/h (3 Bft) 95,74 %
28.11.2021 14:10 5,0 C 8,3 C 2,8 C 86 % 998,1 hPa 0,0 l/m 2 min 0 min 185 W/m 12,9 km/h (3 Bft) 95,74 %
28.11.2021 14:12 5,1 C 7,2 C 2,8 C 85 % 998,1 hPa 0,0 l/m 2 min 0 min 173 W/m 19,3 km/h (3 Bft) 95,74 %
28.11.2021 14:14 5,1 C 6,7 C 2,8 C 85 % 998,1 hPa 0,0 l/m 2 min 0 min 157 W/m 9,7 km/h (2 Bft) 93,62 %
28.11.2021 14:16 5,1 C 6,7 C 2,8 C 85 % 998,1 hPa 0,0 l/m 2 min 0 min 171 W/m 9,7 km/h (2 Bft) 95,74 %
28.11.2021 14:18 5,1 C 6,7 C 2,8 C 85 % 998,1 hPa 0,0 l/m 2 min 0 min 176 W/m 12,9 km/h (3 Bft) 95,65 %
28.11.2021 14:20 5,1 C 6,1 C 2,8 C 84 % 998,1 hPa 0,0 l/m 2 min 0 min 131 W/m 9,7 km/h (2 Bft) 93,62 %
28.11.2021 14:22 5,1 C 6,1 C 2,2 C 84 % 998,1 hPa 0,0 l/m 0 min 0 min 109 W/m 9,7 km/h (2 Bft) 95,74 %
28.11.2021 14:24 5,1 C 6,1 C 2,2 C 84 % 998,1 hPa 0,0 l/m 2 min 0 min 166 W/m 16,1 km/h (3 Bft) 93,62 %
28.11.2021 14:26 5,1 C 6,1 C 2,2 C 84 % 998,1 hPa 0,0 l/m 2 min 0 min 177 W/m 12,9 km/h (3 Bft) 95,74 %
28.11.2021 14:28 5,1 C 6,7 C 2,2 C 84 % 998,0 hPa 0,0 l/m 2 min 0 min 195 W/m 12,9 km/h (3 Bft) 93,48 %
28.11.2021 14:30 5,0 C 7,2 C 2,2 C 83 % 998,1 hPa 0,0 l/m 2 min 0 min 175 W/m 12,9 km/h (3 Bft) 95,74 %
28.11.2021 14:32 5,0 C 7,2 C 2,2 C 83 % 998,1 hPa 0,0 l/m 2 min 0 min 160 W/m 12,9 km/h (3 Bft) 93,62 %
28.11.2021 14:34 5,0 C 6,7 C 2,2 C 83 % 998,2 hPa 0,0 l/m 2 min 0 min 105 W/m 9,7 km/h (2 Bft) 95,74 %
28.11.2021 14:36 5,0 C 6,1 C 2,2 C 83 % 998,1 hPa 0,0 l/m 0 min 0 min 91 W/m 12,9 km/h (3 Bft) 95,74 %
28.11.2021 14:38 5,0 C 5,6 C 2,2 C 83 % 998,2 hPa 0,0 l/m 0 min 0 min 88 W/m 6,4 km/h (2 Bft) 95,74 %
28.11.2021 14:40 5,0 C 5,0 C 2,2 C 83 % 998,2 hPa 0,0 l/m 0 min 0 min 91 W/m 6,4 km/h (2 Bft) 93,48 %
28.11.2021 14:42 4,9 C 5,0 C 2,2 C 83 % 998,2 hPa 0,0 l/m 2 min 0 min 99 W/m 9,7 km/h (2 Bft) 100,00 %
28.11.2021 14:44 4,9 C 5,0 C 2,2 C 84 % 998,3 hPa 0,0 l/m 0 min 0 min 93 W/m 6,4 km/h (2 Bft) 97,87 %
28.11.2021 14:46 4,9 C 5,0 C 2,2 C 84 % 998,2 hPa 0,0 l/m 2 min 0 min 107 W/m 9,7 km/h (2 Bft) 97,87 %
28.11.2021 14:48 4,8 C 5,0 C 2,2 C 84 % 998,3 hPa 0,0 l/m 2 min 0 min 94 W/m 6,4 km/h (2 Bft) 95,74 %
28.11.2021 14:50 4,8 C 4,4 C 2,2 C 84 % 998,2 hPa 0,0 l/m 0 min 0 min 78 W/m 6,4 km/h (2 Bft) 97,87 %
28.11.2021 14:52 4,8 C 4,4 C 2,2 C 85 % 998,3 hPa 0,0 l/m 0 min 0 min 70 W/m 9,7 km/h (2 Bft) 100,00 %
28.11.2021 14:54 4,8 C 4,4 C 2,2 C 85 % 998,3 hPa 0,0 l/m 0 min 0 min 64 W/m 3,2 km/h (1 Bft) 100,00 %
28.11.2021 14:56 4,8 C 4,4 C 2,2 C 85 % 998,2 hPa 0,0 l/m 0 min 0 min 61 W/m 6,4 km/h (2 Bft) 95,74 %
28.11.2021 14:58 4,8 C 4,4 C 2,2 C 85 % 998,2 hPa 0,0 l/m 0 min 0 min 59 W/m 6,4 km/h (2 Bft) 100,00 %
28.11.2021 15:00 4,8 C 4,4 C 2,2 C 85 % 998,2 hPa 0,0 l/m 0 min 0 min 55 W/m 12,9 km/h (3 Bft) 97,87 %
28.11.2021 15:02 4,7 C 4,4 C 2,2 C 85 % 998,2 hPa 0,0 l/m 0 min 0 min 54 W/m 6,4 km/h (2 Bft) 98,11 %
28.11.2021 15:04 4,8 C 4,4 C 2,2 C 85 % 998,2 hPa 0,0 l/m 0 min 0 min 54 W/m 6,4 km/h (2 Bft) 97,56 %
28.11.2021 15:06 4,7 C 4,4 C 2,2 C 85 % 998,2 hPa 0,0 l/m 0 min 0 min 51 W/m 9,7 km/h (2 Bft) 97,87 %
28.11.2021 15:08 4,7 C 4,4 C 2,2 C 85 % 998,2 hPa 0,0 l/m 0 min 0 min 47 W/m 9,7 km/h (2 Bft) 97,87 %
28.11.2021 15:10 4,6 C 4,4 C 2,2 C 85 % 998,2 hPa 0,0 l/m 0 min 0 min 45 W/m 6,4 km/h (2 Bft) 95,74 %
28.11.2021 15:12 4,6 C 4,4 C 2,2 C 85 % 998,3 hPa 0,0 l/m 0 min 0 min 45 W/m 6,4 km/h (2 Bft) 93,62 %
28.11.2021 15:14 4,6 C 4,4 C 2,2 C 86 % 998,3 hPa 0,0 l/m 0 min 0 min 45 W/m 6,4 km/h (2 Bft) 94,23 %
28.11.2021 15:16 4,6 C 4,4 C 2,2 C 86 % 998,3 hPa 0,0 l/m 0 min 0 min 55 W/m 9,7 km/h (2 Bft) 95,74 %
28.11.2021 15:18 4,6 C 4,4 C 2,2 C 86 % 998,3 hPa 0,0 l/m 0 min 0 min 59 W/m 6,4 km/h (2 Bft) 95,74 %
28.11.2021 15:20 4,6 C 4,4 C 2,2 C 86 % 998,4 hPa 0,0 l/m 0 min 0 min 56 W/m 6,4 km/h (2 Bft) 97,87 %
28.11.2021 15:22 4,6 C 4,4 C 2,2 C 86 % 998,4 hPa 0,0 l/m 0 min 0 min 52 W/m 9,7 km/h (2 Bft) 95,74 %
28.11.2021 15:24 4,6 C 4,4 C 2,2 C 86 % 998,4 hPa 0,0 l/m 0 min 0 min 37 W/m 6,4 km/h (2 Bft) 97,87 %
28.11.2021 15:26 4,6 C 4,4 C 2,2 C 86 % 998,4 hPa 0,0 l/m 0 min 0 min 28 W/m 9,7 km/h (2 Bft) 97,83 %
28.11.2021 15:28 4,6 C 3,9 C 1,7 C 86 % 998,4 hPa 0,0 l/m 0 min 0 min 25 W/m 9,7 km/h (2 Bft) 97,87 %
28.11.2021 15:30 4,5 C 3,9 C 1,7 C 86 % 998,4 hPa 0,0 l/m 0 min 0 min 19 W/m 12,9 km/h (3 Bft) 97,87 %
28.11.2021 15:32 4,5 C 3,9 C 1,7 C 86 % 998,5 hPa 0,0 l/m 0 min 0 min 18 W/m 6,4 km/h (2 Bft) 97,87 %
28.11.2021 15:34 4,5 C 3,9 C 1,7 C 87 % 998,5 hPa 0,0 l/m 0 min 0 min 21 W/m 9,7 km/h (2 Bft) 97,87 %
28.11.2021 15:36 4,5 C 3,9 C 1,7 C 87 % 998,4 hPa 0,0 l/m 0 min 0 min 28 W/m 9,7 km/h (2 Bft) 97,87 %
28.11.2021 15:38 4,5 C 3,9 C 1,7 C 87 % 998,4 hPa 0,0 l/m 0 min 0 min 32 W/m 9,7 km/h (2 Bft) 97,83 %
28.11.2021 15:40 4,5 C 3,9 C 1,7 C 87 % 998,4 hPa 0,0 l/m 0 min 0 min 33 W/m 6,4 km/h (2 Bft) 97,87 %
28.11.2021 15:42 4,5 C 3,9 C 1,7 C 87 % 998,4 hPa 0,0 l/m 0 min 0 min 33 W/m 9,7 km/h (2 Bft) 92,11 %
28.11.2021 15:44 4,5 C 3,9 C 1,7 C 87 % 998,4 hPa 0,0 l/m 0 min 0 min 35 W/m 9,7 km/h (2 Bft) 98,00 %
28.11.2021 15:46 4,5 C 3,9 C 1,7 C 87 % 998,5 hPa 0,0 l/m 0 min 0 min 33 W/m 12,9 km/h (3 Bft) 100,00 %
28.11.2021 15:48 4,4 C 3,9 C 1,7 C 87 % 998,4 hPa 0,0 l/m 0 min 0 min 33 W/m 9,7 km/h (2 Bft) 97,83 %
28.11.2021 15:50 4,4 C 3,9 C 1,7 C 87 % 998,5 hPa 0,0 l/m 0 min 0 min 31 W/m 9,7 km/h (2 Bft) 100,00 %
28.11.2021 15:52 4,4 C 3,9 C 1,7 C 87 % 998,5 hPa 0,0 l/m 0 min 0 min 27 W/m 6,4 km/h (2 Bft) 100,00 %
28.11.2021 15:54 4,4 C 3,9 C 1,7 C 87 % 998,6 hPa 0,0 l/m 0 min 0 min 24 W/m 9,7 km/h (2 Bft) 100,00 %
28.11.2021 15:56 4,4 C 3,9 C 1,7 C 87 % 998,6 hPa 0,0 l/m 0 min 0 min 23 W/m 6,4 km/h (2 Bft) 100,00 %
28.11.2021 15:58 4,4 C 3,9 C 1,7 C 87 % 998,6 hPa 0,0 l/m 0 min 0 min 21 W/m 9,7 km/h (2 Bft) 100,00 %
28.11.2021 16:00 4,4 C 3,9 C 1,7 C 87 % 998,6 hPa 0,0 l/m 0 min 0 min 21 W/m 6,4 km/h (2 Bft) 100,00 %
28.11.2021 16:02 4,3 C 3,9 C 1,7 C 87 % 998,6 hPa 0,0 l/m 0 min 0 min 21 W/m 9,7 km/h (2 Bft) 100,00 %
28.11.2021 16:04 4,3 C 3,9 C 1,7 C 87 % 998,5 hPa 0,0 l/m 0 min 0 min 20 W/m 9,7 km/h (2 Bft) 97,87 %
28.11.2021 16:06 4,3 C 3,9 C 1,7 C 87 % 998,5 hPa 0,0 l/m 0 min 0 min 19 W/m 12,9 km/h (3 Bft) 100,00 %
28.11.2021 16:08 4,3 C 3,9 C 1,7 C 88 % 998,6 hPa 0,0 l/m 0 min 0 min 16 W/m 12,9 km/h (3 Bft) 97,87 %
28.11.2021 16:10 4,3 C 3,9 C 1,7 C 88 % 998,6 hPa 0,0 l/m 0 min 0 min 15 W/m 12,9 km/h (3 Bft) 97,87 %
28.11.2021 16:12 4,2 C 3,3 C 1,7 C 88 % 998,7 hPa 0,0 l/m 0 min 0 min 14 W/m 6,4 km/h (2 Bft) 100,00 %
28.11.2021 16:14 4,2 C 3,3 C 1,7 C 88 % 998,7 hPa 0,0 l/m 0 min 0 min 13 W/m 6,4 km/h (2 Bft) 97,87 %
28.11.2021 16:16 4,2 C 3,3 C 1,7 C 88 % 998,7 hPa 0,0 l/m 0 min 0 min 11 W/m 9,7 km/h (2 Bft) 100,00 %
28.11.2021 16:18 4,1 C 3,3 C 1,1 C 88 % 998,7 hPa 0,0 l/m 0 min 0 min 9 W/m 12,9 km/h (3 Bft) 100,00 %
28.11.2021 16:20 4,1 C 3,3 C 1,1 C 88 % 998,7 hPa 0,0 l/m 0 min 0 min 8 W/m 9,7 km/h (2 Bft) 95,74 %
28.11.2021 16:22 4,1 C 3,3 C 1,1 C 88 % 998,7 hPa 0,0 l/m 0 min 0 min 7 W/m 6,4 km/h (2 Bft) 100,00 %
28.11.2021 16:24 4,1 C 3,3 C 1,1 C 88 % 998,8 hPa 0,0 l/m 0 min 0 min 6 W/m 6,4 km/h (2 Bft) 97,83 %
28.11.2021 16:26 4,0 C 3,3 C 1,1 C 89 % 998,8 hPa 0,0 l/m 0 min 0 min 5 W/m 6,4 km/h (2 Bft) 97,87 %
28.11.2021 16:28 4,0 C 3,3 C 1,1 C 89 % 998,8 hPa 0,0 l/m 0 min 0 min 4 W/m 6,4 km/h (2 Bft) 95,74 %
28.11.2021 16:30 4,0 C 3,3 C 1,1 C 89 % 998,9 hPa 0,0 l/m 0 min 0 min 0 W/m 6,4 km/h (2 Bft) 97,87 %
28.11.2021 16:32 4,0 C 3,3 C 1,1 C 89 % 998,9 hPa 0,0 l/m 0 min 0 min 0 W/m 6,4 km/h (2 Bft) 97,87 %
28.11.2021 16:34 4,0 C 3,3 C 1,1 C 89 % 998,9 hPa 0,0 l/m 0 min 0 min 0 W/m 6,4 km/h (2 Bft) 95,74 %
28.11.2021 16:36 3,9 C 3,3 C 1,1 C 89 % 998,9 hPa 0,0 l/m 0 min 0 min 0 W/m 6,4 km/h (2 Bft) 97,83 %
28.11.2021 16:38 3,9 C 3,3 C 1,1 C 89 % 999,0 hPa 0,0 l/m 0 min 0 min 0 W/m 6,4 km/h (2 Bft) 95,74 %
28.11.2021 16:40 3,9 C 3,3 C 1,1 C 89 % 999,0 hPa 0,0 l/m 0 min 0 min 0 W/m 3,2 km/h (1 Bft) 95,12 %
28.11.2021 16:42 3,9 C 3,3 C 1,1 C 89 % 999,0 hPa 0,0 l/m 0 min 0 min 0 W/m 6,4 km/h (2 Bft) 95,74 %
28.11.2021 16:44 3,9 C 3,3 C 1,1 C 89 % 999,0 hPa 0,0 l/m 0 min 0 min 0 W/m 9,7 km/h (2 Bft) 95,74 %
28.11.2021 16:46 3,9 C 3,3 C 1,1 C 89 % 999,0 hPa 0,0 l/m 0 min 0 min 0 W/m 6,4 km/h (2 Bft) 94,34 %
28.11.2021 16:48 3,9 C 3,3 C 1,1 C 90 % 999,0 hPa 0,0 l/m 0 min 0 min 0 W/m 6,4 km/h (2 Bft) 95,65 %
28.11.2021 16:50 3,9 C 3,3 C 1,1 C 90 % 999,0 hPa 0,0 l/m 0 min 0 min 0 W/m 3,2 km/h (1 Bft) 91,49 %
28.11.2021 16:52 3,9 C 3,3 C 1,1 C 90 % 999,0 hPa 0,0 l/m 0 min 0 min 0 W/m 6,4 km/h (2 Bft) 95,74 %
28.11.2021 16:54 3,9 C 3,3 C 1,1 C 90 % 999,1 hPa 0,0 l/m 0 min 2 min 0 W/m 9,7 km/h (2 Bft) 97,87 %
28.11.2021 16:56 3,9 C 3,3 C 1,1 C 90 % 999,1 hPa 0,2 l/m 0 min 2 min 0 W/m 6,4 km/h (2 Bft) 97,87 %
28.11.2021 16:58 3,9 C 2,8 C 1,1 C 90 % 999,1 hPa 0,0 l/m 0 min 2 min 0 W/m 3,2 km/h (1 Bft) 97,87 %
28.11.2021 17:00 3,9 C 2,8 C 1,1 C 90 % 999,1 hPa 0,0 l/m 0 min 0 min 0 W/m 3,2 km/h (1 Bft) 97,87 %
28.11.2021 17:02 3,9 C 2,8 C 1,1 C 90 % 999,1 hPa 0,0 l/m 0 min 0 min 0 W/m 3,2 km/h (1 Bft) 97,83 %
28.11.2021 17:04 3,9 C 2,8 C 1,1 C 91 % 999,1 hPa 0,0 l/m 0 min 0 min 0 W/m 25,7 km/h (4 Bft) 93,62 %
28.11.2021 17:06 3,8 C 2,8 C 0,6 C 91 % 999,1 hPa 0,0 l/m 0 min 2 min 0 W/m 25,7 km/h (4 Bft) 97,87 %
28.11.2021 17:08 3,7 C 2,8 C 0,6 C 90 % 999,1 hPa 0,0 l/m 0 min 2 min 0 W/m 16,1 km/h (3 Bft) 95,74 %
28.11.2021 17:10 3,6 C 2,8 C 0,6 C 91 % 999,1 hPa 0,0 l/m 0 min 2 min 0 W/m 16,1 km/h (3 Bft) 97,87 %
28.11.2021 17:12 3,6 C 2,8 C 0,6 C 91 % 999,1 hPa 0,0 l/m 0 min 2 min 0 W/m 19,3 km/h (3 Bft) 97,83 %
28.11.2021 17:14 3,5 C 2,8 C 0,6 C 91 % 999,1 hPa 0,0 l/m 0 min 2 min 0 W/m 9,7 km/h (2 Bft) 97,87 %
28.11.2021 17:16 3,5 C 2,2 C 0,6 C 91 % 999,1 hPa 0,0 l/m 0 min 0 min 0 W/m 16,1 km/h (3 Bft) 97,87 %
28.11.2021 17:18 3,4 C 2,2 C 0,6 C 91 % 999,1 hPa 0,0 l/m 0 min 0 min 0 W/m 12,9 km/h (3 Bft) 97,87 %
28.11.2021 17:20 3,4 C 2,2 C 0,6 C 91 % 999,1 hPa 0,0 l/m 0 min 0 min 0 W/m 16,1 km/h (3 Bft) 95,74 %
28.11.2021 17:22 3,4 C 2,2 C 0,6 C 91 % 999,1 hPa 0,0 l/m 0 min 0 min 0 W/m 9,7 km/h (2 Bft) 95,74 %
28.11.2021 17:24 3,3 C 2,2 C 0,6 C 91 % 999,2 hPa 0,0 l/m 0 min 0 min 0 W/m 12,9 km/h (3 Bft) 95,74 %
28.11.2021 17:26 3,3 C 2,2 C 0,6 C 91 % 999,2 hPa 0,0 l/m 0 min 0 min 0 W/m 16,1 km/h (3 Bft) 95,65 %
28.11.2021 17:28 3,3 C 2,2 C 0,6 C 91 % 999,2 hPa 0,0 l/m 0 min 0 min 0 W/m 9,7 km/h (2 Bft) 97,87 %
28.11.2021 17:30 3,3 C 2,2 C 0,6 C 91 % 999,2 hPa 0,0 l/m 0 min 0 min 0 W/m 12,9 km/h (3 Bft) 97,87 %
28.11.2021 17:32 3,2 C 2,2 C 0,6 C 91 % 999,2 hPa 0,0 l/m 0 min 0 min 0 W/m 12,9 km/h (3 Bft) 97,87 %
28.11.2021 17:34 3,2 C 2,2 C 0,6 C 92 % 999,3 hPa 0,0 l/m 0 min 0 min 0 W/m 9,7 km/h (2 Bft) 97,87 %
28.11.2021 17:36 3,2 C 2,2 C 0,6 C 92 % 999,3 hPa 0,0 l/m 0 min 0 min 0 W/m 9,7 km/h (2 Bft) 95,74 %
28.11.2021 17:38 3,1 C 2,2 C 0,6 C 92 % 999,3 hPa 0,0 l/m 0 min 0 min 0 W/m 9,7 km/h (2 Bft) 93,48 %
28.11.2021 17:40 3,2 C 2,2 C 0,6 C 92 % 999,3 hPa 0,0 l/m 0 min 0 min 0 W/m 9,7 km/h (2 Bft) 97,87 %
28.11.2021 17:42 3,1 C 2,2 C 0,6 C 92 % 999,3 hPa 0,0 l/m 0 min 0 min 0 W/m 6,4 km/h (2 Bft) 97,87 %
28.11.2021 17:44 3,1 C 2,2 C 0,6 C 92 % 999,4 hPa 0,0 l/m 0 min 0 min 0 W/m 6,4 km/h (2 Bft) 97,87 %
28.11.2021 17:46 3,1 C 2,2 C 0,6 C 92 % 999,3 hPa 0,0 l/m 0 min 0 min 0 W/m 12,9 km/h (3 Bft) 95,74 %
28.11.2021 17:48 3,1 C 2,2 C 0,6 C 92 % 999,3 hPa 0,0 l/m 0 min 0 min 0 W/m 9,7 km/h (2 Bft) 97,83 %
28.11.2021 17:50 3,1 C 2,2 C 0,6 C 92 % 999,4 hPa 0,0 l/m 0 min 0 min 0 W/m 12,9 km/h (3 Bft) 97,87 %
28.11.2021 17:52 3,1 C 2,2 C 0,6 C 92 % 999,4 hPa 0,0 l/m 0 min 0 min 0 W/m 9,7 km/h (2 Bft) 97,87 %
28.11.2021 17:54 3,1 C 2,2 C 0,6 C 92 % 999,4 hPa 0,0 l/m 0 min 0 min 0 W/m 9,7 km/h (2 Bft) 97,87 %
28.11.2021 17:56 3,1 C 2,2 C 0,6 C 92 % 999,4 hPa 0,0 l/m 0 min 0 min 0 W/m 6,4 km/h (2 Bft) 97,87 %
28.11.2021 17:58 3,1 C 2,2 C 0,6 C 92 % 999,4 hPa 0,0 l/m 0 min 0 min 0 W/m 6,4 km/h (2 Bft) 97,87 %
28.11.2021 18:00 3,1 C 2,2 C 0,6 C 92 % 999,5 hPa 0,0 l/m 0 min 0 min 0 W/m 3,2 km/h (1 Bft) 97,14 %
28.11.2021 18:02 3,1 C 2,2 C 0,6 C 93 % 999,5 hPa 0,0 l/m 0 min 0 min 0 W/m 3,2 km/h (1 Bft) 94,00 %
28.11.2021 18:04 3,1 C 2,2 C 0,6 C 93 % 999,5 hPa 0,0 l/m 0 min 0 min 0 W/m 9,7 km/h (2 Bft) 97,87 %
28.11.2021 18:08 3,0 C 2,2 C 0,6 C 93 % 999,6 hPa 0,0 l/m 0 min 0 min 0 W/m 9,7 km/h (2 Bft) 97,87 %
28.11.2021 18:10 3,0 C 2,2 C 0,6 C 93 % 999,7 hPa 0,0 l/m 0 min 0 min 0 W/m 6,4 km/h (2 Bft) 97,87 %
28.11.2021 18:12 3,0 C 2,2 C 0,6 C 93 % 999,7 hPa 0,0 l/m 0 min 0 min 0 W/m 6,4 km/h (2 Bft) 95,74 %
28.11.2021 18:14 3,0 C 2,2 C 0,6 C 93 % 999,7 hPa 0,0 l/m 0 min 0 min 0 W/m 3,2 km/h (1 Bft) 93,48 %
28.11.2021 18:16 3,0 C 2,2 C 0,6 C 93 % 999,7 hPa 0,0 l/m 0 min 0 min 0 W/m 3,2 km/h (1 Bft) 95,74 %
28.11.2021 18:18 3,0 C 2,2 C 0,0 C 93 % 999,7 hPa 0,0 l/m 0 min 0 min 0 W/m 6,4 km/h (2 Bft) 97,87 %
28.11.2021 18:20 3,0 C 2,2 C 0,0 C 93 % 999,7 hPa 0,0 l/m 0 min 0 min 0 W/m 3,2 km/h (1 Bft) 97,87 %
28.11.2021 18:22 3,0 C 2,2 C 0,0 C 93 % 999,7 hPa 0,0 l/m 0 min 0 min 0 W/m 0,0 km/h (0 Bft) 97,87 %
28.11.2021 18:24 2,9 C 2,2 C 0,0 C 93 % 999,7 hPa 0,0 l/m 0 min 0 min 0 W/m 0,0 km/h (0 Bft) 97,87 %
28.11.2021 18:26 2,9 C 2,2 C 0,0 C 93 % 999,7 hPa 0,0 l/m 0 min 0 min 0 W/m 6,4 km/h (2 Bft) 97,83 %
28.11.2021 18:28 2,9 C 2,2 C 0,6 C 93 % 999,8 hPa 0,0 l/m 0 min 0 min 0 W/m 3,2 km/h (1 Bft) 97,87 %
28.11.2021 18:30 2,9 C 2,2 C 0,0 C 93 % 999,8 hPa 0,0 l/m 0 min 0 min 0 W/m 3,2 km/h (1 Bft) 97,87 %
28.11.2021 18:32 2,9 C 2,2 C 0,0 C 93 % 999,9 hPa 0,0 l/m 0 min 0 min 0 W/m 3,2 km/h (1 Bft) 39,39 %
28.11.2021 18:34 2,9 C 2,2 C 0,0 C 93 % 999,8 hPa 0,0 l/m 0 min 0 min 0 W/m 3,2 km/h (1 Bft) 100,00 %
28.11.2021 18:36 2,9 C 2,2 C 0,0 C 93 % 999,9 hPa 0,0 l/m 0 min 0 min 0 W/m 0,0 km/h (0 Bft) 95,65 %
28.11.2021 18:38 2,9 C 2,2 C 0,0 C 93 % 999,9 hPa 0,0 l/m 0 min 0 min 0 W/m 6,4 km/h (2 Bft) 97,87 %
28.11.2021 18:40 2,9 C 2,2 C 0,6 C 93 % 999,9 hPa 0,0 l/m 0 min 0 min 0 W/m 3,2 km/h (1 Bft) 97,87 %
28.11.2021 18:42 2,9 C 2,2 C 0,6 C 93 % 1000,0 hPa 0,0 l/m 0 min 0 min 0 W/m 3,2 km/h (1 Bft) 93,62 %
28.11.2021 18:44 2,9 C 2,2 C 0,6 C 93 % 1000,0 hPa 0,0 l/m 0 min 0 min 0 W/m 3,2 km/h (1 Bft) 95,74 %
28.11.2021 18:46 2,9 C 2,2 C 0,6 C 93 % 1000,0 hPa 0,0 l/m 0 min 0 min 0 W/m 3,2 km/h (1 Bft) 97,87 %
28.11.2021 18:48 2,8 C 2,2 C 0,6 C 93 % 1000,0 hPa 0,0 l/m 0 min 0 min 0 W/m 6,4 km/h (2 Bft) 97,83 %
28.11.2021 18:50 2,8 C 2,2 C 0,6 C 93 % 1000,0 hPa 0,0 l/m 0 min 0 min 0 W/m 3,2 km/h (1 Bft) 100,00 %
28.11.2021 18:52 2,8 C 2,2 C 0,0 C 93 % 1000,1 hPa 0,0 l/m 0 min 0 min 0 W/m 3,2 km/h (1 Bft) 100,00 %
28.11.2021 18:54 2,8 C 2,2 C 0,0 C 93 % 1000,1 hPa 0,0 l/m 0 min 0 min 0 W/m 6,4 km/h (2 Bft) 100,00 %
28.11.2021 18:56 2,8 C 2,2 C 0,0 C 93 % 1000,1 hPa 0,0 l/m 0 min 0 min 0 W/m 6,4 km/h (2 Bft) 100,00 %
28.11.2021 18:58 2,8 C 2,2 C 0,0 C 93 % 1000,2 hPa 0,0 l/m 0 min 0 min 0 W/m 6,4 km/h (2 Bft) 100,00 %
28.11.2021 19:00 2,8 C 2,2 C 0,0 C 93 % 1000,2 hPa 0,0 l/m 0 min 0 min 0 W/m 6,4 km/h (2 Bft) 95,65 %
28.11.2021 19:02 2,8 C 2,2 C 0,0 C 93 % 1000,2 hPa 0,0 l/m 0 min 0 min 0 W/m 9,7 km/h (2 Bft) 97,87 %
28.11.2021 19:04 2,8 C 2,2 C 0,0 C 93 % 1000,2 hPa 0,0 l/m 0 min 0 min 0 W/m 9,7 km/h (2 Bft) 97,87 %
28.11.2021 19:06 2,8 C 2,2 C 0,0 C 93 % 1000,3 hPa 0,0 l/m 0 min 0 min 0 W/m 12,9 km/h (3 Bft) 100,00 %
28.11.2021 19:08 2,7 C 2,2 C 0,0 C 93 % 1000,2 hPa 0,0 l/m 0 min 0 min 0 W/m 12,9 km/h (3 Bft) 95,74 %
28.11.2021 19:10 2,7 C 2,2 C 0,0 C 93 % 1000,2 hPa 0,0 l/m 0 min 0 min 0 W/m 9,7 km/h (2 Bft) 100,00 %
28.11.2021 19:12 2,7 C 2,2 C 0,0 C 93 % 1000,2 hPa 0,0 l/m 0 min 0 min 0 W/m 9,7 km/h (2 Bft) 97,83 %
28.11.2021 19:14 2,7 C 2,2 C 0,0 C 94 % 1000,3 hPa 0,0 l/m 0 min 0 min 0 W/m 9,7 km/h (2 Bft) 100,00 %
28.11.2021 19:16 2,7 C 2,2 C 0,0 C 94 % 1000,3 hPa 0,0 l/m 0 min 0 min 0 W/m 9,7 km/h (2 Bft) 100,00 %
28.11.2021 19:18 2,7 C 2,2 C 0,0 C 94 % 1000,3 hPa 0,0 l/m 0 min 0 min 0 W/m 6,4 km/h (2 Bft) 100,00 %
28.11.2021 19:20 2,6 C 2,2 C 0,0 C 94 % 1000,4 hPa 0,0 l/m 0 min 0 min 0 W/m 9,7 km/h (2 Bft) 100,00 %
28.11.2021 19:22 2,6 C 2,2 C 0,0 C 94 % 1000,4 hPa 0,0 l/m 0 min 0 min 0 W/m 9,7 km/h (2 Bft) 100,00 %
28.11.2021 19:24 2,6 C 2,2 C 0,0 C 94 % 1000,4 hPa 0,0 l/m 0 min 0 min 0 W/m 6,4 km/h (2 Bft) 100,00 %
28.11.2021 19:26 2,6 C 2,2 C 0,0 C 94 % 1000,4 hPa 0,0 l/m 0 min 0 min 0 W/m 9,7 km/h (2 Bft) 100,00 %
28.11.2021 19:28 2,6 C 2,2 C 0,0 C 94 % 1000,4 hPa 0,0 l/m 0 min 0 min 0 W/m 9,7 km/h (2 Bft) 97,87 %
28.11.2021 19:30 2,6 C 2,2 C 0,0 C 94 % 1000,4 hPa 0,0 l/m 0 min 0 min 0 W/m 3,2 km/h (1 Bft) 100,00 %
28.11.2021 19:32 2,6 C 2,2 C 0,0 C 94 % 1000,4 hPa 0,0 l/m 0 min 0 min 0 W/m 6,4 km/h (2 Bft) 97,87 %
28.11.2021 19:34 2,6 C 2,2 C 0,0 C 94 % 1000,6 hPa 0,0 l/m 0 min 0 min 0 W/m 6,4 km/h (2 Bft) 100,00 %
28.11.2021 19:36 2,6 C 2,2 C 0,0 C 94 % 1000,5 hPa 0,0 l/m 0 min 0 min 0 W/m 9,7 km/h (2 Bft) 100,00 %
28.11.2021 19:38 2,6 C 2,2 C 0,0 C 94 % 1000,6 hPa 0,0 l/m 0 min 0 min 0 W/m 9,7 km/h (2 Bft) 100,00 %
28.11.2021 19:40 2,6 C 2,2 C 0,0 C 94 % 1000,6 hPa 0,0 l/m 0 min 0 min 0 W/m 6,4 km/h (2 Bft) 100,00 %
28.11.2021 19:42 2,6 C 2,2 C 0,0 C 94 % 1000,6 hPa 0,0 l/m 0 min 0 min 0 W/m 9,7 km/h (2 Bft) 97,87 %
28.11.2021 19:44 2,5 C 2,2 C 0,0 C 94 % 1000,7 hPa 0,0 l/m 0 min 0 min 0 W/m 6,4 km/h (2 Bft) 100,00 %
28.11.2021 19:46 2,5 C 2,2 C 0,0 C 94 % 1000,7 hPa 0,0 l/m 0 min 0 min 0 W/m 6,4 km/h (2 Bft) 95,74 %
28.11.2021 19:48 2,5 C 2,2 C 0,0 C 94 % 1000,7 hPa 0,0 l/m 0 min 0 min 0 W/m 9,7 km/h (2 Bft) 100,00 %
28.11.2021 19:50 2,5 C 1,7 C 0,0 C 94 % 1000,8 hPa 0,0 l/m 0 min 0 min 0 W/m 9,7 km/h (2 Bft) 100,00 %
28.11.2021 19:52 2,5 C 1,7 C 0,0 C 94 % 1000,7 hPa 0,0 l/m 0 min 0 min 0 W/m 6,4 km/h (2 Bft) 97,87 %
28.11.2021 19:54 2,5 C 1,7 C 0,0 C 94 % 1000,8 hPa 0,0 l/m 0 min 0 min 0 W/m 9,7 km/h (2 Bft) 100,00 %
28.11.2021 19:56 2,5 C 1,7 C 0,0 C 94 % 1000,8 hPa 0,0 l/m 0 min 0 min 0 W/m 9,7 km/h (2 Bft) 93,62 %
28.11.2021 19:58 2,5 C 1,7 C 0,0 C 94 % 1000,8 hPa 0,0 l/m 0 min 0 min 0 W/m 6,4 km/h (2 Bft) 95,65 %
28.11.2021 20:00 2,5 C 1,7 C 0,0 C 94 % 1000,7 hPa 0,0 l/m 0 min 0 min 0 W/m 9,7 km/h (2 Bft) 91,49 %
28.11.2021 20:02 2,5 C 1,7 C 0,0 C 94 % 1000,8 hPa 0,0 l/m 0 min 0 min 0 W/m 6,4 km/h (2 Bft) 91,49 %
28.11.2021 20:04 2,4 C 1,7 C 0,0 C 94 % 1000,9 hPa 0,0 l/m 0 min 0 min 0 W/m 9,7 km/h (2 Bft) 95,74 %
28.11.2021 20:06 2,4 C 1,7 C 0,0 C 94 % 1000,8 hPa 0,0 l/m 0 min 0 min 0 W/m 9,7 km/h (2 Bft) 93,62 %
28.11.2021 20:08 2,4 C 1,7 C 0,0 C 94 % 1000,9 hPa 0,0 l/m 0 min 0 min 0 W/m 12,9 km/h (3 Bft) 93,62 %
28.11.2021 20:10 2,4 C 1,7 C 0,0 C 94 % 1000,9 hPa 0,0 l/m 0 min 0 min 0 W/m 9,7 km/h (2 Bft) 93,48 %
28.11.2021 20:12 2,4 C 1,7 C 0,0 C 94 % 1000,8 hPa 0,0 l/m 0 min 0 min 0 W/m 6,4 km/h (2 Bft) 93,62 %
28.11.2021 20:14 2,3 C 1,7 C 0,0 C 94 % 1000,9 hPa 0,0 l/m 0 min 0 min 0 W/m 6,4 km/h (2 Bft) 91,49 %
28.11.2021 20:16 2,3 C 1,7 C 0,0 C 94 % 1001,0 hPa 0,0 l/m 0 min 0 min 0 W/m 12,9 km/h (3 Bft) 91,49 %
28.11.2021 20:18 2,3 C 1,7 C 0,0 C 94 % 1001,0 hPa 0,0 l/m 0 min 0 min 0 W/m 6,4 km/h (2 Bft) 93,62 %
28.11.2021 20:20 2,3 C 1,7 C 0,0 C 94 % 1001,0 hPa 0,0 l/m 0 min 0 min 0 W/m 6,4 km/h (2 Bft) 93,62 %
28.11.2021 20:22 2,2 C 1,7 C 0,0 C 94 % 1001,0 hPa 0,0 l/m 0 min 0 min 0 W/m 9,7 km/h (2 Bft) 93,48 %
28.11.2021 20:24 2,2 C 1,1 C 0,0 C 94 % 1001,0 hPa 0,0 l/m 0 min 0 min 0 W/m 9,7 km/h (2 Bft) 93,62 %
28.11.2021 20:26 2,1 C 1,1 C 0,0 C 94 % 1001,0 hPa 0,0 l/m 0 min 0 min 0 W/m 3,2 km/h (1 Bft) 89,36 %
28.11.2021 20:28 2,1 C 1,1 C 0,0 C 94 % 1001,0 hPa 0,0 l/m 0 min 0 min 0 W/m 3,2 km/h (1 Bft) 91,49 %
28.11.2021 20:30 2,1 C 1,1 C 0,0 C 94 % 1001,0 hPa 0,0 l/m 0 min 0 min 0 W/m 6,4 km/h (2 Bft) 93,62 %
28.11.2021 20:32 2,1 C 1,1 C 0,0 C 94 % 1001,1 hPa 0,0 l/m 0 min 0 min 0 W/m 3,2 km/h (1 Bft) 95,74 %
28.11.2021 20:34 2,0 C 1,1 C 0,0 C 94 % 1001,1 hPa 0,0 l/m 0 min 0 min 0 W/m 6,4 km/h (2 Bft) 95,65 %
28.11.2021 20:36 2,0 C 1,1 C 0,0 C 94 % 1001,1 hPa 0,0 l/m 0 min 0 min 0 W/m 6,4 km/h (2 Bft) 97,87 %
28.11.2021 20:38 2,0 C 1,1 C 0,0 C 94 % 1001,2 hPa 0,0 l/m 0 min 0 min 0 W/m 6,4 km/h (2 Bft) 97,87 %
28.11.2021 20:40 2,0 C 1,1 C -0,6 C 94 % 1001,2 hPa 0,0 l/m 0 min 0 min 0 W/m 9,7 km/h (2 Bft) 95,74 %
28.11.2021 20:42 2,0 C 1,1 C -0,6 C 94 % 1001,2 hPa 0,0 l/m 0 min 0 min 0 W/m 6,4 km/h (2 Bft) 95,74 %
28.11.2021 20:44 2,0 C 1,1 C -0,6 C 94 % 1001,2 hPa 0,0 l/m 0 min 0 min 0 W/m 9,7 km/h (2 Bft) 97,87 %
28.11.2021 20:46 1,9 C 1,1 C -0,6 C 94 % 1001,1 hPa 0,0 l/m 0 min 0 min 0 W/m 6,4 km/h (2 Bft) 97,83 %
28.11.2021 20:48 1,9 C 1,1 C -0,6 C 94 % 1001,2 hPa 0,0 l/m 0 min 0 min 0 W/m 6,4 km/h (2 Bft) 97,87 %
28.11.2021 20:50 1,9 C 1,1 C -0,6 C 94 % 1001,2 hPa 0,0 l/m 0 min 0 min 0 W/m 9,7 km/h (2 Bft) 95,74 %
28.11.2021 20:52 1,9 C 1,1 C -0,6 C 94 % 1001,2 hPa 0,0 l/m 0 min 0 min 0 W/m 6,4 km/h (2 Bft) 95,74 %
28.11.2021 20:54 1,9 C 1,1 C -0,6 C 94 % 1001,2 hPa 0,0 l/m 0 min 0 min 0 W/m 3,2 km/h (1 Bft) 97,87 %
28.11.2021 20:56 1,8 C 1,1 C -0,6 C 94 % 1001,3 hPa 0,0 l/m 0 min 0 min 0 W/m 6,4 km/h (2 Bft) 97,87 %
28.11.2021 20:58 1,8 C 1,1 C -0,6 C 94 % 1001,3 hPa 0,0 l/m 0 min 0 min 0 W/m 6,4 km/h (2 Bft) 100,00 %
28.11.2021 21:00 1,8 C 1,1 C -0,6 C 94 % 1001,3 hPa 0,0 l/m 0 min 0 min 0 W/m 6,4 km/h (2 Bft) 100,00 %
28.11.2021 21:02 1,8 C 1,1 C -0,6 C 94 % 1001,3 hPa 0,0 l/m 0 min 0 min 0 W/m 12,9 km/h (3 Bft) 97,87 %
28.11.2021 21:04 1,8 C 1,1 C -0,6 C 94 % 1001,3 hPa 0,0 l/m 0 min 0 min 0 W/m 3,2 km/h (1 Bft) 56,52 %
28.11.2021 21:06 1,7 C 0,6 C -0,6 C 94 % 1001,2 hPa 0,0 l/m 0 min 0 min 0 W/m 9,7 km/h (2 Bft) 100,00 %
28.11.2021 21:08 1,7 C 0,6 C -0,6 C 94 % 1001,3 hPa 0,0 l/m 0 min 0 min 0 W/m 9,7 km/h (2 Bft) 100,00 %
28.11.2021 21:10 1,6 C 0,6 C -0,6 C 94 % 1001,3 hPa 0,0 l/m 0 min 0 min 0 W/m 6,4 km/h (2 Bft) 100,00 %
28.11.2021 21:12 1,6 C 0,6 C -0,6 C 94 % 1001,3 hPa 0,0 l/m 0 min 0 min 0 W/m 6,4 km/h (2 Bft) 97,87 %
28.11.2021 21:14 1,6 C 0,6 C -0,6 C 94 % 1001,4 hPa 0,0 l/m 0 min 0 min 0 W/m 6,4 km/h (2 Bft) 100,00 %
28.11.2021 21:16 1,6 C 0,6 C -0,6 C 94 % 1001,4 hPa 0,0 l/m 0 min 0 min 0 W/m 3,2 km/h (1 Bft) 100,00 %
28.11.2021 21:18 1,5 C 0,6 C -0,6 C 95 % 1001,4 hPa 0,0 l/m 0 min 0 min 0 W/m 3,2 km/h (1 Bft) 100,00 %
28.11.2021 21:20 1,5 C 0,6 C -0,6 C 95 % 1001,4 hPa 0,0 l/m 0 min 0 min 0 W/m 6,4 km/h (2 Bft) 100,00 %
28.11.2021 21:22 1,5 C 0,6 C -0,6 C 95 % 1001,4 hPa 0,0 l/m 0 min 0 min 0 W/m 6,4 km/h (2 Bft) 100,00 %
28.11.2021 21:24 1,5 C 0,6 C -0,6 C 95 % 1001,4 hPa 0,0 l/m 0 min 0 min 0 W/m 6,4 km/h (2 Bft) 100,00 %
28.11.2021 21:26 1,5 C 0,6 C -0,6 C 95 % 1001,4 hPa 0,0 l/m 0 min 0 min 0 W/m 6,4 km/h (2 Bft) 100,00 %
28.11.2021 21:28 1,5 C 0,6 C -0,6 C 95 % 1001,4 hPa 0,0 l/m 0 min 0 min 0 W/m 3,2 km/h (1 Bft) 97,87 %
28.11.2021 21:30 1,4 C 0,6 C -0,6 C 94 % 1001,4 hPa 0,0 l/m 0 min 0 min 0 W/m 6,4 km/h (2 Bft) 100,00 %
28.11.2021 21:32 1,4 C 0,6 C -0,6 C 95 % 1001,4 hPa 0,0 l/m 0 min 0 min 0 W/m 6,4 km/h (2 Bft) 100,00 %
28.11.2021 21:34 1,4 C 0,6 C -0,6 C 95 % 1001,5 hPa 0,0 l/m 0 min 0 min 0 W/m 6,4 km/h (2 Bft) 100,00 %
28.11.2021 21:36 1,4 C 0,6 C -0,6 C 95 % 1001,5 hPa 0,0 l/m 0 min 0 min 0 W/m 0,0 km/h (0 Bft) 100,00 %
28.11.2021 21:38 1,4 C 0,6 C -0,6 C 95 % 1001,5 hPa 0,0 l/m 0 min 0 min 0 W/m 0,0 km/h (0 Bft) 97,87 %
28.11.2021 21:40 1,4 C 0,6 C -1,1 C 95 % 1001,6 hPa 0,0 l/m 0 min 0 min 0 W/m 0,0 km/h (0 Bft) 95,74 %
28.11.2021 21:42 1,4 C 0,6 C -1,1 C 95 % 1001,6 hPa 0,0 l/m 0 min 0 min 0 W/m 0,0 km/h (0 Bft) 97,87 %
28.11.2021 21:44 1,3 C 0,6 C -1,1 C 95 % 1001,6 hPa 0,0 l/m 0 min 0 min 0 W/m 0,0 km/h (0 Bft) 97,83 %
28.11.2021 21:46 1,3 C 0,0 C -1,1 C 95 % 1001,6 hPa 0,0 l/m 0 min 0 min 0 W/m 0,0 km/h (0 Bft) 95,74 %
28.11.2021 21:48 1,3 C 0,0 C -1,1 C 95 % 1001,6 hPa 0,0 l/m 0 min 0 min 0 W/m 0,0 km/h (0 Bft) 97,87 %
28.11.2021 21:50 1,3 C 0,0 C -1,1 C 95 % 1001,7 hPa 0,0 l/m 0 min 0 min 0 W/m 0,0 km/h (0 Bft) 97,87 %
28.11.2021 21:52 1,2 C 0,0 C -1,1 C 95 % 1001,7 hPa 0,0 l/m 0 min 0 min 0 W/m 0,0 km/h (0 Bft) 97,87 %
28.11.2021 21:54 1,2 C 0,0 C -1,1 C 95 % 1001,7 hPa 0,0 l/m 0 min 0 min 0 W/m 0,0 km/h (0 Bft) 97,87 %
28.11.2021 21:56 1,2 C 0,0 C -1,1 C 95 % 1001,7 hPa 0,0 l/m 0 min 0 min 0 W/m 0,0 km/h (0 Bft) 100,00 %
28.11.2021 21:58 1,1 C 0,0 C -1,1 C 95 % 1001,7 hPa 0,2 l/m 0 min 0 min 0 W/m 0,0 km/h (0 Bft) 97,87 %
28.11.2021 22:00 1,1 C 0,0 C -1,1 C 95 % 1001,8 hPa 0,0 l/m 0 min 0 min 0 W/m 0,0 km/h (0 Bft) 95,74 %
28.11.2021 22:02 1,1 C 0,0 C -1,1 C 95 % 1001,8 hPa 0,0 l/m 0 min 0 min 0 W/m 6,4 km/h (2 Bft) 97,87 %
28.11.2021 22:04 1,1 C 0,0 C -1,1 C 95 % 1001,8 hPa 0,0 l/m 0 min 0 min 0 W/m 0,0 km/h (0 Bft) 97,87 %
28.11.2021 22:06 1,1 C 0,0 C -1,1 C 95 % 1001,8 hPa 0,0 l/m 0 min 0 min 0 W/m 0,0 km/h (0 Bft) 95,74 %
28.11.2021 22:08 1,0 C 0,0 C -1,1 C 95 % 1001,8 hPa 0,0 l/m 0 min 0 min 0 W/m 0,0 km/h (0 Bft) 97,83 %
28.11.2021 22:10 1,0 C 0,0 C -1,1 C 95 % 1001,8 hPa 0,0 l/m 0 min 0 min 0 W/m 6,4 km/h (2 Bft) 95,74 %
28.11.2021 22:12 1,0 C 0,0 C -1,1 C 95 % 1001,8 hPa 0,0 l/m 0 min 0 min 0 W/m 6,4 km/h (2 Bft) 97,87 %
28.11.2021 22:14 1,0 C 0,0 C -1,1 C 95 % 1001,8 hPa 0,0 l/m 0 min 0 min 0 W/m 6,4 km/h (2 Bft) 97,87 %
28.11.2021 22:16 1,0 C 0,0 C -1,1 C 95 % 1001,8 hPa 0,0 l/m 0 min 0 min 0 W/m 6,4 km/h (2 Bft) 97,87 %
28.11.2021 22:18 1,0 C 0,0 C -1,1 C 95 % 1001,9 hPa 0,0 l/m 0 min 0 min 0 W/m 6,4 km/h (2 Bft) 95,74 %
28.11.2021 22:20 1,0 C 0,0 C -1,1 C 95 % 1001,9 hPa 0,0 l/m 0 min 0 min 0 W/m 6,4 km/h (2 Bft) 97,83 %
28.11.2021 22:22 1,0 C 0,0 C -1,1 C 95 % 1001,8 hPa 0,0 l/m 0 min 0 min 0 W/m 3,2 km/h (1 Bft) 97,87 %
28.11.2021 22:24 1,0 C 0,0 C -1,1 C 95 % 1001,9 hPa 0,0 l/m 0 min 0 min 0 W/m 6,4 km/h (2 Bft) 97,87 %
28.11.2021 22:26 0,9 C 0,0 C -1,1 C 95 % 1001,9 hPa 0,0 l/m 0 min 0 min 0 W/m 6,4 km/h (2 Bft) 97,87 %
28.11.2021 22:28 0,9 C 0,0 C -1,1 C 95 % 1002,0 hPa 0,0 l/m 0 min 0 min 0 W/m 3,2 km/h (1 Bft) 97,87 %
28.11.2021 22:30 0,9 C 0,0 C -1,1 C 95 % 1002,0 hPa 0,0 l/m 0 min 0 min 0 W/m 3,2 km/h (1 Bft) 97,87 %
28.11.2021 22:32 0,9 C 0,0 C -1,1 C 95 % 1002,0 hPa 0,0 l/m 0 min 0 min 0 W/m 6,4 km/h (2 Bft) 97,83 %
28.11.2021 22:34 0,9 C 0,0 C -1,1 C 95 % 1002,0 hPa 0,0 l/m 0 min 0 min 0 W/m 6,4 km/h (2 Bft) 97,87 %
28.11.2021 22:36 0,8 C 0,0 C -1,1 C 95 % 1002,0 hPa 0,0 l/m 0 min 0 min 0 W/m 6,4 km/h (2 Bft) 95,74 %
28.11.2021 22:38 0,8 C 0,0 C -1,1 C 95 % 1002,0 hPa 0,0 l/m 0 min 0 min 0 W/m 6,4 km/h (2 Bft) 97,87 %
28.11.2021 22:40 0,8 C 0,0 C -1,1 C 95 % 1002,1 hPa 0,0 l/m 0 min 0 min 0 W/m 3,2 km/h (1 Bft) 93,62 %
28.11.2021 22:42 0,8 C 0,0 C -1,1 C 95 % 1002,1 hPa 0,0 l/m 0 min 0 min 0 W/m 6,4 km/h (2 Bft) 95,65 %
28.11.2021 22:44 0,8 C 0,0 C -1,1 C 95 % 1002,1 hPa 0,0 l/m 0 min 0 min 0 W/m 6,4 km/h (2 Bft) 97,87 %
28.11.2021 22:46 0,7 C 0,0 C -1,1 C 95 % 1002,1 hPa 0,0 l/m 0 min 0 min 0 W/m 3,2 km/h (1 Bft) 95,74 %
28.11.2021 22:48 0,7 C 0,0 C -1,1 C 95 % 1002,1 hPa 0,0 l/m 0 min 0 min 0 W/m 3,2 km/h (1 Bft) 97,87 %
28.11.2021 22:50 0,7 C 0,0 C -1,1 C 95 % 1002,2 hPa 0,0 l/m 0 min 0 min 0 W/m 6,4 km/h (2 Bft) 100,00 %
28.11.2021 22:52 0,7 C 0,0 C -1,1 C 95 % 1002,1 hPa 0,0 l/m 0 min 0 min 0 W/m 3,2 km/h (1 Bft) 100,00 %
28.11.2021 22:54 0,6 C 0,0 C -1,1 C 95 % 1002,2 hPa 0,0 l/m 0 min 0 min 0 W/m 3,2 km/h (1 Bft) 100,00 %
28.11.2021 22:56 0,6 C 0,0 C -1,1 C 95 % 1002,1 hPa 0,0 l/m 0 min 0 min 0 W/m 3,2 km/h (1 Bft) 100,00 %
28.11.2021 22:58 0,6 C 0,0 C -1,1 C 95 % 1002,2 hPa 0,0 l/m 0 min 0 min 0 W/m 6,4 km/h (2 Bft) 97,83 %
28.11.2021 23:00 0,6 C 0,0 C -1,1 C 95 % 1002,1 hPa 0,0 l/m 0 min 0 min 0 W/m 3,2 km/h (1 Bft) 97,87 %
28.11.2021 23:02 0,6 C 0,0 C -1,1 C 95 % 1002,1 hPa 0,0 l/m 0 min 0 min 0 W/m 3,2 km/h (1 Bft) 97,87 %
28.11.2021 23:04 0,6 C 0,0 C -1,1 C 95 % 1002,2 hPa 0,0 l/m 0 min 0 min 0 W/m 3,2 km/h (1 Bft) 100,00 %
28.11.2021 23:06 0,5 C 0,0 C -1,1 C 95 % 1002,2 hPa 0,0 l/m 0 min 0 min 0 W/m 6,4 km/h (2 Bft) 100,00 %
28.11.2021 23:08 0,5 C 0,0 C -1,1 C 95 % 1002,3 hPa 0,0 l/m 0 min 0 min 0 W/m 6,4 km/h (2 Bft) 97,87 %
28.11.2021 23:10 0,5 C 0,0 C -1,1 C 95 % 1002,2 hPa 0,0 l/m 0 min 0 min 0 W/m 6,4 km/h (2 Bft) 97,83 %
28.11.2021 23:12 0,5 C 0,0 C -1,1 C 95 % 1002,2 hPa 0,0 l/m 0 min 0 min 0 W/m 3,2 km/h (1 Bft) 100,00 %
28.11.2021 23:14 0,5 C 0,0 C -1,1 C 95 % 1002,2 hPa 0,0 l/m 0 min 0 min 0 W/m 3,2 km/h (1 Bft) 93,62 %
28.11.2021 23:16 0,5 C 0,0 C -1,1 C 95 % 1002,3 hPa 0,0 l/m 0 min 0 min 0 W/m 6,4 km/h (2 Bft) 97,87 %
28.11.2021 23:18 0,5 C 0,0 C -1,1 C 95 % 1002,3 hPa 0,0 l/m 0 min 0 min 0 W/m 6,4 km/h (2 Bft) 100,00 %
28.11.2021 23:20 0,5 C 0,0 C -1,1 C 95 % 1002,2 hPa 0,0 l/m 0 min 0 min 0 W/m 3,2 km/h (1 Bft) 100,00 %
28.11.2021 23:22 0,5 C -0,6 C -1,7 C 95 % 1002,3 hPa 0,0 l/m 0 min 0 min 0 W/m 3,2 km/h (1 Bft) 97,87 %
28.11.2021 23:24 0,5 C -0,6 C -1,7 C 95 % 1002,3 hPa 0,0 l/m 0 min 0 min 0 W/m 3,2 km/h (1 Bft) 95,74 %
28.11.2021 23:26 0,5 C -0,6 C -1,7 C 95 % 1002,3 hPa 0,0 l/m 0 min 0 min 0 W/m 3,2 km/h (1 Bft) 93,62 %
28.11.2021 23:28 0,5 C -0,6 C -1,7 C 95 % 1002,3 hPa 0,0 l/m 0 min 0 min 0 W/m 3,2 km/h (1 Bft) 93,62 %
28.11.2021 23:30 0,4 C -0,6 C -1,7 C 95 % 1002,3 hPa 0,0 l/m 0 min 0 min 0 W/m 3,2 km/h (1 Bft) 95,65 %
28.11.2021 23:32 0,4 C -0,6 C -1,7 C 95 % 1002,3 hPa 0,0 l/m 0 min 0 min 0 W/m 3,2 km/h (1 Bft) 95,83 %
28.11.2021 23:34 0,4 C -0,6 C -1,7 C 95 % 1002,4 hPa 0,0 l/m 0 min 0 min 0 W/m 3,2 km/h (1 Bft) 95,74 %
28.11.2021 23:36 0,4 C -0,6 C -1,7 C 95 % 1002,4 hPa 0,0 l/m 0 min 0 min 0 W/m 3,2 km/h (1 Bft) 95,74 %
28.11.2021 23:38 0,4 C -0,6 C -1,7 C 95 % 1002,4 hPa 0,0 l/m 0 min 0 min 0 W/m 6,4 km/h (2 Bft) 95,74 %
28.11.2021 23:40 0,4 C -0,6 C -1,7 C 95 % 1002,4 hPa 0,0 l/m 0 min 0 min 0 W/m 3,2 km/h (1 Bft) 95,74 %
28.11.2021 23:42 0,4 C -0,6 C -1,7 C 95 % 1002,4 hPa 0,0 l/m 0 min 0 min 0 W/m 6,4 km/h (2 Bft) 95,56 %
28.11.2021 23:44 0,3 C -0,6 C -1,7 C 95 % 1002,4 hPa 0,0 l/m 0 min 0 min 0 W/m 3,2 km/h (1 Bft) 95,74 %
28.11.2021 23:46 0,3 C -0,6 C -1,7 C 95 % 1002,4 hPa 0,0 l/m 0 min 0 min 0 W/m 3,2 km/h (1 Bft) 91,49 %
28.11.2021 23:48 0,3 C -0,6 C -1,7 C 95 % 1002,5 hPa 0,0 l/m 0 min 0 min 0 W/m 3,2 km/h (1 Bft) 93,62 %
28.11.2021 23:50 0,3 C -0,6 C -1,7 C 95 % 1002,5 hPa 0,0 l/m 0 min 0 min 0 W/m 3,2 km/h (1 Bft) 95,74 %
28.11.2021 23:52 0,3 C -0,6 C -1,7 C 95 % 1002,5 hPa 0,0 l/m 0 min 0 min 0 W/m 3,2 km/h (1 Bft) 93,62 %
28.11.2021 23:54 0,2 C -0,6 C -1,7 C 96 % 1002,6 hPa 0,0 l/m 0 min 0 min 0 W/m 3,2 km/h (1 Bft) 95,65 %
28.11.2021 23:56 0,2 C -0,6 C -1,7 C 96 % 1002,6 hPa 0,0 l/m 0 min 0 min 0 W/m 3,2 km/h (1 Bft) 97,87 %
28.11.2021 23:58 0,1 C -0,6 C -1,7 C 96 % 1002,6 hPa 0,0 l/m 0 min 0 min 0 W/m 3,2 km/h (1 Bft) 95,74 %
_ Min-Zeit 05:34 05:00 04:28 14:30 00:56 - - - - 02:56 18:32
Minimum _ -1,2 C -2,2 C -3,3 C 83 % 994,5 hPa - - - - 0,0 km/h (0 Bft) 39,39 %
_ Max-Zeit 14:12 12:50 12:52 23:54 23:54 16:56 12:30 16:54 12:50 17:04 00:00
Maximum _ 5,1 C 12,2 C 2,8 C 96 % 1002,6 hPa 0,2 l/m 2 min 2 min 393 W/m 25,7 km/h
NW (4 Bft)
100,00 %
Durchschnitt _ 2,1 C 1,9 C -0,1 C 92 % 998,0 hPa #0,4 l/m #1:16 h #16 min. 83 W/m 5,2 km/h (1 Bft) 97,24 %
© 2021 W. Hausmann